Data for 04/22/2009

Time Sea-Level Adjusted Pressure Absolute Pressure Temperature Relative Humidity Dew Point Precipitation   
(mb) (inHg) (mb) (inHg) (C) (F) (%) (C) (F) (mm) (in)
00:01 1018 30.06 848 25.04 7.4 45.3 56 -0.7 30.7 0 0
00:02 1018 30.06 848 25.04 7.3 45.1 57 -0.7 30.8 0 0
00:03 1018 30.06 848 25.04 7.2 44.9 57 -0.7 30.8 0 0
00:04 1018 30.06 847 25.01 7.1 44.8 57 -0.8 30.6 0 0
00:05 1018 30.06 847 25.01 7.1 44.7 57 -0.8 30.6 0 0
00:06 1018 30.06 847 25.01 7.1 44.8 57 -0.9 30.3 0 0
00:07 1018 30.06 847 25.01 7.1 44.8 57 -0.9 30.5 0 0
00:08 1018 30.06 847 25.01 7.2 44.9 57 -0.9 30.5 0 0
00:09 1018 30.06 847 25.01 7.2 44.9 57 -0.8 30.6 0 0
00:10 1018 30.06 847 25.01 7.1 44.8 57 -0.8 30.6 0 0
00:11 1018 30.06 847 25.01 7.1 44.8 57 -0.8 30.5 0 0
00:12 1018 30.06 847 25.01 7.1 44.8 56 -1 30.3 0 0
00:13 1018 30.06 847 25.01 7.2 44.9 56 -0.9 30.3 0 0
00:14 1018 30.06 847 25.01 7.2 45 56 -1 30.1 0 0
00:15 1018 30.06 847 25.01 7.3 45.2 55 -1.2 29.8 0 0
00:16 1018 30.06 847 25.01 7.5 45.4 53 -1.5 29.2 0 0
00:17 1018 30.06 847 25.01 7.7 45.9 52 -1.5 29.3 0 0
00:18 1018 30.06 847 25.01 8 46.3 52 -1.3 29.7 0 0
00:19 1018 30.06 847 25.01 8 46.4 52 -1.1 30 0 0
00:20 1018 30.06 847 25.01 7.8 46.1 52 -1.3 29.7 0 0
00:21 1018 30.06 847 25.01 7.8 46 52 -1.3 29.6 0 0
00:22 1018 30.06 847 25.01 7.8 46 52 -1.3 29.6 0 0
00:23 1018 30.06 847 25.01 7.8 46.1 52 -1.3 29.7 0 0
00:24 1018 30.06 847 25.01 7.8 46.1 52 -1.4 29.5 0 0
00:25 1018 30.06 847 25.01 7.8 46.1 52 -1.4 29.5 0 0
00:26 1018 30.06 847 25.01 7.9 46.2 52 -1.4 29.4 0 0
00:27 1018 30.06 847 25.01 8 46.3 52 -1.4 29.5 0 0
00:28 1018 30.06 847 25.01 8 46.4 51 -1.5 29.3 0 0
00:29 1018 30.06 847 25.01 8.1 46.6 51 -1.5 29.4 0 0
00:30 1018 30.06 847 25.01 8.1 46.5 51 -1.5 29.3 0 0
00:31 1018 30.06 847 25.01 8.1 46.6 51 -1.4 29.4 0 0
00:32 1018 30.06 847 25.01 8.1 46.5 50 -1.6 29.1 0 0
00:33 1018 30.06 847 25.01 8.1 46.6 51 -1.3 29.6 0 0
00:34 1018 30.06 847 25.01 8 46.4 52 -1.1 30 0 0
00:35 1018 30.06 847 25.01 7.9 46.1 52 -1.3 29.7 0 0
00:36 1018 30.06 847 25.01 7.8 46 53 -1.2 29.8 0 0
00:37 1018 30.06 847 25.01 7.7 45.9 53 -1.3 29.7 0 0
00:38 1018 30.06 847 25.01 7.7 45.9 53 -1.3 29.7 0 0
00:39 1018 30.06 847 25.01 7.7 45.8 53 -1.2 29.9 0 0
00:40 1018 30.06 847 25.01 7.6 45.8 53 -1.2 29.8 0 0
00:41 1018 30.06 847 25.01 7.5 45.6 54 -1 30.1 0 0
00:42 1018 30.06 847 25.01 7.4 45.2 54 -1.3 29.7 0 0
00:43 1018 30.06 847 25.01 7.2 44.9 55 -1.3 29.7 0 0
00:44 1018 30.06 847 25.01 7 44.7 56 -1.2 29.8 0 0
00:45 1018 30.06 847 25.01 6.9 44.3 57 -1 30.1 0 0
00:46 1018 30.06 847 25.01 6.7 44 60 -0.6 31 0 0
00:47 1018 30.06 847 25.01 6.4 43.6 61 -0.6 31 0 0
00:48 1018 30.06 847 25.01 6.3 43.3 59 -1.1 30.1 0 0
00:49 1018 30.06 847 25.01 6.3 43.3 57 -1.5 29.3 0 0
00:50 1018 30.06 847 25.01 6.4 43.6 56 -1.6 29.2 0 0
00:51 1018 30.06 847 25.01 6.5 43.8 56 -1.5 29.4 0 0
00:52 1018 30.06 847 25.01 6.6 44 56 -1.4 29.5 0 0
00:53 1018 30.06 847 25.01 6.7 44 56 -1.4 29.4 0 0
00:54 1018 30.06 847 25.01 6.7 44.1 55 -1.6 29.1 0 0
00:55 1018 30.06 847 25.01 6.8 44.2 55 -1.6 29.2 0 0
00:56 1018 30.06 847 25.01 6.8 44.3 55 -1.6 29.1 0 0
00:57 1018 30.06 847 25.01 6.9 44.4 55 -1.4 29.4 0 0
00:58 1018 30.06 847 25.01 6.8 44.2 56 -1.4 29.5 0 0
00:59 1018 30.06 847 25.01 6.8 44.2 56 -1.4 29.5 0 0
01:00 1018 30.06 847 25.01 6.8 44.3 56 -1.3 29.6 0 0
01:01 1018 30.06 847 25.01 6.9 44.4 56 -1.3 29.7 0 0
01:02 1018 30.06 847 25.01 6.9 44.4 55 -1.5 29.3 0 0
01:03 1018 30.06 847 25.01 6.9 44.5 55 -1.6 29.2 0 0
01:04 1018 30.06 847 25.01 7 44.7 55 -1.5 29.4 0 0
01:05 1018 30.06 847 25.01 7 44.6 55 -1.4 29.5 0 0
01:06 1018 30.06 847 25.01 6.9 44.5 55 -1.4 29.4 0 0
01:07 1018 30.06 847 25.01 6.9 44.3 56 -1.4 29.6 0 0
01:08 1018 30.06 847 25.01 6.8 44.2 56 -1.4 29.4 0 0
01:09 1018 30.06 847 25.01 6.8 44.2 54 -1.7 28.9 0 0
01:10 1018 30.06 847 25.01 6.8 44.2 54 -1.9 28.5 0 0
01:11 1018 30.06 847 25.01 6.8 44.3 54 -1.8 28.7 0 0
01:12 1018 30.06 847 25.01 7 44.5 53 -2 28.4 0 0
01:13 1018 30.06 847 25.01 7 44.6 53 -2 28.5 0 0
01:14 1018 30.06 847 25.01 7.1 44.7 53 -1.8 28.7 0 0
01:15 1018 30.06 847 25.01 7.1 44.7 53 -1.8 28.8 0 0
01:16 1018 30.06 847 25.01 7.1 44.7 53 -1.8 28.8 0 0
01:17 1018 30.06 847 25.01 7.1 44.7 53 -1.9 28.6 0 0
01:18 1018 30.06 847 25.01 7 44.6 53 -1.9 28.5 0 0
01:19 1018 30.06 847 25.01 7.1 44.7 52 -2.1 28.3 0 0
01:20 1018 30.06 847 25.01 7.2 45 50 -2.4 27.7 0 0
01:21 1018 30.06 847 25.01 7.3 45.1 49 -2.6 27.3 0 0
01:22 1018 30.06 847 25.01 7.3 45.1 50 -2.4 27.7 0 0
01:23 1018 30.06 847 25.01 7.3 45.1 50 -2.3 27.8 0 0
01:24 1018 30.06 847 25.01 7.4 45.2 50 -2.3 27.9 0 0
01:25 1018 30.06 847 25.01 7.4 45.3 50 -2.2 28 0 0
01:26 1018 30.06 847 25.01 7.4 45.2 51 -2.2 28 0 0
01:27 1018 30.06 847 25.01 7.3 45.1 51 -2.2 28 0 0
01:28 1018 30.06 847 25.01 7.2 44.9 51 -2.2 28 0 0
01:29 1018 30.06 847 25.01 7.1 44.7 52 -2.2 28.1 0 0
01:30 1018 30.06 847 25.01 7 44.5 53 -2 28.4 0 0
01:31 1018 30.06 847 25.01 6.8 44.3 54 -1.9 28.6 0 0
01:32 1018 30.06 847 25.01 6.8 44.2 54 -1.8 28.8 0 0
01:33 1018 30.06 847 25.01 6.7 44.1 54 -1.9 28.6 0 0
01:34 1018 30.06 847 25.01 6.7 44.1 55 -1.7 29 0 0
01:35 1018 30.06 847 25.01 6.6 43.9 55 -1.8 28.8 0 0
01:36 1018 30.06 847 25.01 6.6 43.8 55 -1.7 28.9 0 0
01:37 1018 30.06 847 25.01 6.5 43.7 56 -1.7 28.9 0 0
01:38 1018 30.06 847 25.01 6.5 43.7 55 -1.8 28.7 0 0
01:39 1018 30.06 847 25.01 6.5 43.7 55 -2 28.5 0 0
01:40 1018 30.06 847 25.01 6.6 43.9 55 -1.7 28.9 0 0
01:41 1018 30.06 847 25.01 6.6 43.8 56 -1.6 29 0 0
01:42 1018 30.06 847 25.01 6.4 43.6 56 -1.6 29 0 0
01:43 1018 30.06 847 25.01 6.3 43.4 58 -1.4 29.5 0 0
01:44 1018 30.06 847 25.01 6 42.8 59 -1.4 29.5 0 0
01:45 1018 30.06 847 25.01 5.8 42.4 60 -1.4 29.5 0 0
01:46 1018 30.06 847 25.01 5.6 42.1 61 -1.3 29.6 0 0
01:47 1018 30.06 847 25.01 5.5 41.9 60 -1.6 29.1 0 0
01:48 1018 30.06 847 25.01 5.5 41.9 60 -1.6 29.1 0 0
01:49 1018 30.06 847 25.01 5.1 41.1 62 -1.6 29.2 0 0
01:50 1018 30.06 847 25.01 4.7 40.5 62 -1.9 28.5 0 0
01:51 1018 30.06 847 25.01 4.9 40.9 61 -2 28.4 0 0
01:52 1018 30.06 847 25.01 5.1 41.2 62 -1.6 29.1 0 0
01:53 1018 30.06 847 25.01 4.8 40.7 63 -1.7 29 0 0
01:54 1018 30.06 847 25.01 4.8 40.7 62 -1.9 28.6 0 0
01:55 1018 30.06 847 25.01 5.2 41.3 60 -1.8 28.7 0 0
01:56 1018 30.06 847 25.01 5.3 41.6 60 -1.9 28.6 0 0
01:57 1018 30.06 847 25.01 5.6 42.1 58 -2.1 28.3 0 0
01:58 1018 30.06 847 25.01 6.1 43 55 -2.3 27.9 0 0
01:59 1018 30.06 847 25.01 6.7 44 53 -2.2 28.1 0 0
02:00 1018 30.06 847 25.01 7 44.6 52 -2.2 28 0 0
02:01 1018 30.06 847 25.01 7.2 44.9 51 -2.2 28.1 0 0
02:02 1018 30.06 847 25.01 7.3 45.1 51 -2.1 28.1 0 0
02:03 1018 30.06 847 25.01 7.2 45 51 -2.1 28.2 0 0
02:04 1018 30.06 847 25.01 7.1 44.8 52 -2 28.5 0 0
02:05 1018 30.06 847 25.01 6.7 44.1 54 -1.9 28.6 0 0
02:06 1018 30.06 847 25.01 6.4 43.4 56 -1.9 28.6 0 0
02:07 1018 30.06 847 25.01 6 42.9 56 -2 28.4 0 0
02:08 1018 30.06 847 25.01 5.8 42.5 57 -1.9 28.5 0 0
02:09 1018 30.06 847 25.01 5.7 42.2 58 -2 28.4 0 0
02:10 1018 30.06 847 25.01 5.5 41.9 61 -1.5 29.3 0 0
02:11 1018 30.06 847 25.01 5.2 41.4 63 -1.2 29.8 0 0
02:12 1018 30.06 847 25.01 5.1 41.1 62 -1.7 28.9 0 0
02:13 1018 30.06 847 25.01 5.2 41.4 60 -1.8 28.7 0 0
02:14 1018 30.06 847 25.01 5.5 41.9 60 -1.7 28.9 0 0
02:15 1018 30.06 847 25.01 5.7 42.3 59 -1.6 29.1 0 0
02:16 1018 30.06 847 25.01 5.9 42.5 58 -1.8 28.8 0 0
02:17 1018 30.06 847 25.01 6.1 42.9 57 -1.8 28.7 0 0
02:18 1018 30.06 847 25.01 6.2 43.2 57 -1.7 28.9 0 0
02:19 1018 30.06 847 25.01 6.2 43.2 57 -1.5 29.3 0 0
02:20 1017 30.03 847 25.01 6.2 43.1 57 -1.7 29 0 0
02:21 1017 30.03 847 25.01 6.2 43.2 56 -1.9 28.6 0 0
02:22 1017 30.03 847 25.01 6.4 43.5 56 -1.7 29 0 0
02:23 1017 30.03 847 25.01 6.4 43.4 57 -1.5 29.4 0 0
02:24 1017 30.03 847 25.01 6.3 43.3 58 -1.3 29.6 0 0
02:25 1017 30.03 847 25.01 6 42.8 57 -1.7 28.9 0 0
02:26 1017 30.03 847 25.01 6 42.8 58 -1.7 28.9 0 0
02:27 1017 30.03 847 25.01 6.1 42.9 58 -1.6 29.2 0 0
02:28 1017 30.03 847 25.01 6 42.8 60 -1.3 29.7 0 0
02:29 1017 30.03 847 25.01 5.6 42.2 59 -1.8 28.7 0 0
02:30 1017 30.03 847 25.01 5.8 42.5 58 -1.8 28.8 0 0
02:31 1017 30.03 847 25.01 6 42.8 58 -1.6 29.2 0 0
02:32 1017 30.03 846 24.98 6.1 42.9 57 -1.8 28.7 0 0
02:33 1017 30.03 847 25.01 6.2 43.1 58 -1.6 29.2 0 0
02:34 1017 30.03 847 25.01 6.1 43 56 -2 28.3 0 0
02:35 1017 30.03 847 25.01 6.3 43.3 57 -1.6 29.2 0 0
02:36 1017 30.03 846 24.98 6 42.8 59 -1.4 29.5 0 0
02:37 1017 30.03 846 24.98 5.5 41.8 61 -1.5 29.2 0 0
02:38 1017 30.03 846 24.98 5.4 41.8 56 -2.7 27.2 0 0
02:39 1017 30.03 847 25.01 6.3 43.4 53 -2.5 27.5 0 0
02:40 1017 30.03 847 25.01 7.1 44.7 50 -2.8 27 0 0
02:41 1017 30.03 847 25.01 7.8 46 49 -2.2 28 0 0
02:42 1017 30.03 847 25.01 7.9 46.2 49 -2.1 28.1 0 0
02:43 1017 30.03 847 25.01 7.9 46.3 50 -1.9 28.5 0 0
02:44 1017 30.03 846 24.98 7.9 46.2 50 -1.8 28.8 0 0
02:45 1017 30.03 846 24.98 7.8 46.1 49 -2.2 28 0 0
02:46 1017 30.03 846 24.98 7.9 46.3 50 -2 28.5 0 0
02:47 1017 30.03 846 24.98 7.8 46 51 -1.7 28.9 0 0
02:48 1017 30.03 846 24.98 7.7 45.8 52 -1.6 29.2 0 0
02:49 1017 30.03 846 24.98 7.5 45.6 52 -1.6 29.1 0 0
02:50 1017 30.03 846 24.98 7.5 45.6 52 -1.6 29.2 0 0
02:51 1017 30.03 846 24.98 7.6 45.6 54 -1.2 29.9 0 0
02:52 1017 30.03 846 24.98 7.5 45.4 53 -1.5 29.3 0 0
02:53 1017 30.03 846 24.98 7.5 45.4 53 -1.5 29.4 0 0
02:54 1017 30.03 846 24.98 7.4 45.4 52 -1.8 28.8 0 0
02:55 1017 30.03 846 24.98 7.5 45.6 53 -1.4 29.5 0 0
02:56 1017 30.03 846 24.98 7.4 45.3 54 -1.3 29.7 0 0
02:57 1017 30.03 846 24.98 7.5 45.5 52 -1.6 29.2 0 0
02:58 1017 30.03 846 24.98 7.9 46.2 52 -1.4 29.4 0 0
02:59 1017 30.03 846 24.98 8.2 46.8 50 -1.6 29.2 0 0
03:00 1017 30.03 846 24.98 8.5 47.3 48 -1.8 28.8 0 0
03:01 1017 30.03 846 24.98 8.8 47.8 49 -1.3 29.7 0 0
03:02 1017 30.03 846 24.98 8.8 47.9 48 -1.5 29.4 0 0
03:03 1017 30.03 846 24.98 8.9 48 47 -1.8 28.7 0 0
03:04 1017 30.03 846 24.98 9 48.2 47 -1.7 28.9 0 0
03:05 1017 30.03 846 24.98 9.1 48.3 48 -1.4 29.4 0 0
03:06 1017 30.03 846 24.98 9 48.2 48 -1.4 29.5 0 0
03:07 1017 30.03 846 24.98 9 48.1 48 -1.5 29.4 0 0
03:08 1017 30.03 846 24.98 8.9 48 48 -1.5 29.3 0 0
03:09 1017 30.03 846 24.98 9 48.2 46 -2.1 28.3 0 0
03:10 1017 30.03 846 24.98 9.3 48.7 46 -1.7 29 0 0
03:11 1017 30.03 846 24.98 9.3 48.7 46 -1.8 28.7 0 0
03:12 1017 30.03 846 24.98 9.3 48.7 46 -1.7 29 0 0
03:13 1017 30.03 846 24.98 9.3 48.7 46 -1.8 28.8 0 0
03:14 1017 30.03 846 24.98 9.4 48.8 45 -1.9 28.7 0 0
03:15 1017 30.03 846 24.98 9.4 48.9 47 -1.4 29.4 0 0
03:16 1017 30.03 846 24.98 9.2 48.5 50 -0.8 30.6 0 0
03:17 1017 30.03 846 24.98 8.6 47.5 52 -0.7 30.7 0 0
03:18 1017 30.03 846 24.98 8 46.4 52 -1.3 29.6 0 0
03:19 1017 30.03 846 24.98 7.9 46.3 50 -1.8 28.8 0 0
03:20 1017 30.03 846 24.98 8.2 46.7 51 -1.4 29.5 0 0
03:21 1017 30.03 846 24.98 8 46.4 51 -1.5 29.4 0 0
03:22 1017 30.03 846 24.98 7.6 45.6 53 -1.4 29.5 0 0
03:23 1016 30 846 24.98 7.2 44.9 54 -1.4 29.4 0 0
03:24 1016 30 846 24.98 6.7 44.1 56 -1.5 29.3 0 0
03:25 1016 30 846 24.98 6.5 43.7 57 -1.5 29.3 0 0
03:26 1016 30 846 24.98 6.3 43.3 57 -1.5 29.3 0 0
03:27 1016 30 846 24.98 6.1 42.9 59 -1.4 29.5 0 0
03:28 1016 30 846 24.98 5.7 42.3 60 -1.5 29.2 0 0
03:29 1016 30 846 24.98 5.4 41.7 60 -1.8 28.7 0 0
03:30 1016 30 846 24.98 5.3 41.6 61 -1.6 29.1 0 0
03:31 1016 30 846 24.98 5.1 41.1 62 -1.7 29 0 0
03:32 1016 30 846 24.98 4.7 40.5 63 -1.7 29 0 0
03:33 1016 30 845 24.95 4.3 39.7 65 -1.7 28.9 0 0
03:34 1016 30 845 24.95 4.2 39.6 64 -2 28.5 0 0
03:35 1016 30 845 24.95 4.1 39.4 66 -1.7 28.9 0 0
03:36 1016 30 845 24.95 3.8 38.8 67 -1.8 28.8 0 0
03:37 1016 30 845 24.95 3.5 38.3 69 -1.7 29 0 0
03:38 1016 30 846 24.98 3.3 37.9 69 -1.8 28.8 0 0
03:39 1016 30 846 24.98 3.3 37.9 69 -1.9 28.6 0 0
03:40 1016 30 846 24.98 3.2 37.8 70 -1.7 28.9 0 0
03:41 1016 30 846 24.98 3.1 37.6 70 -1.8 28.8 0 0
03:42 1016 30 846 24.98 2.9 37.3 73 -1.5 29.3 0 0
03:43 1016 30 846 24.98 2.7 36.9 75 -1.3 29.6 0 0
03:44 1016 30 846 24.98 2.6 36.7 75 -1.3 29.6 0 0
03:45 1016 30 846 24.98 2.7 36.8 74 -1.6 29.2 0 0
03:46 1016 30 846 24.98 2.8 37.1 72 -1.7 29 0 0
03:47 1016 30 846 24.98 3 37.4 71 -1.7 29 0 0
03:48 1016 30 846 24.98 3.2 37.7 71 -1.7 29 0 0
03:49 1016 30 846 24.98 3.3 37.9 71 -1.4 29.4 0 0
03:50 1016 30 846 24.98 3.2 37.7 72 -1.4 29.4 0 0
03:51 1016 30 846 24.98 3.2 37.7 71 -1.5 29.3 0 0
03:52 1016 30 846 24.98 3.2 37.8 69 -1.8 28.7 0 0
03:53 1016 30 846 24.98 3.5 38.2 68 -1.9 28.5 0 0
03:54 1016 30 846 24.98 3.8 38.8 66 -2.1 28.2 0 0
03:55 1016 30 846 24.98 4.1 39.5 64 -2.1 28.3 0 0
03:56 1016 30 846 24.98 4.4 39.9 63 -2.1 28.2 0 0
03:57 1016 30 846 24.98 4.7 40.5 60 -2.3 27.9 0 0
03:58 1016 30 846 24.98 5.1 41.1 60 -2 28.4 0 0
03:59 1016 30 846 24.98 4.9 40.9 61 -2 28.4 0 0
04:00 1016 30 846 24.98 4.9 40.9 60 -2.1 28.2 0 0
04:01 1016 30 846 24.98 5.2 41.3 59 -2.2 28.1 0 0
04:02 1017 30.03 846 24.98 5.4 41.7 58 -2.3 27.9 0 0
04:03 1017 30.03 846 24.98 5.6 42.2 57 -2.2 28.1 0 0
04:04 1017 30.03 846 24.98 5.8 42.4 59 -1.7 28.9 0 0
04:05 1017 30.03 846 24.98 5.6 42.1 59 -1.7 29 0 0
04:06 1017 30.03 846 24.98 5.5 41.9 60 -1.7 29 0 0
04:07 1017 30.03 846 24.98 5.5 42 60 -1.6 29.1 0 0
04:08 1017 30.03 846 24.98 5.6 42 60 -1.6 29.1 0 0
04:09 1017 30.03 846 24.98 5.7 42.2 59 -1.8 28.8 0 0
04:10 1017 30.03 846 24.98 6 42.8 59 -1.5 29.4 0 0
04:11 1017 30.03 846 24.98 6.2 43.1 59 -1.2 29.9 0 0
04:12 1017 30.03 846 24.98 6.1 43.1 61 -0.9 30.4 0 0
04:13 1017 30.03 846 24.98 6 42.8 62 -0.8 30.6 0 0
04:14 1017 30.03 846 24.98 5.9 42.5 62 -0.9 30.4 0 0
04:15 1017 30.03 846 24.98 5.7 42.3 62 -0.9 30.3 0 0
04:16 1017 30.03 846 24.98 5.6 42.1 61 -1.2 29.8 0 0
04:17 1017 30.03 846 24.98 5.8 42.4 61 -1.2 29.8 0 0
04:18 1017 30.03 846 24.98 6 42.7 60 -1.2 29.9 0 0
04:19 1017 30.03 846 24.98 6.1 43 60 -1.1 30 0 0
04:20 1017 30.03 846 24.98 6.2 43.1 60 -1 30.2 0 0
04:21 1017 30.03 846 24.98 6.3 43.4 59 -1.1 30 0 0
04:22 1017 30.03 846 24.98 6.4 43.6 57 -1.5 29.4 0 0
04:23 1017 30.03 846 24.98 6.8 44.2 55 -1.6 29.1 0 0
04:24 1017 30.03 846 24.98 7.3 45.1 52 -2 28.4 0 0
04:25 1017 30.03 846 24.98 7.8 46 51 -1.7 28.9 0 0
04:26 1017 30.03 846 24.98 8 46.4 51 -1.4 29.5 0 0
04:27 1017 30.03 846 24.98 8 46.3 52 -1.2 29.8 0 0
04:28 1017 30.03 846 24.98 7.9 46.3 53 -1.1 30.1 0 0
04:29 1017 30.03 846 24.98 7.8 46.1 52 -1.3 29.7 0 0
04:30 1017 30.03 846 24.98 7.9 46.2 52 -1.3 29.7 0 0
04:31 1017 30.03 846 24.98 8 46.4 51 -1.4 29.4 0 0
04:32 1017 30.03 846 24.98 8.1 46.6 51 -1.5 29.3 0 0
04:33 1017 30.03 846 24.98 8.2 46.8 50 -1.6 29.1 0 0
04:34 1017 30.03 846 24.98 8.2 46.8 49 -1.8 28.7 0 0
04:35 1017 30.03 846 24.98 8.3 47 49 -1.7 29 0 0
04:36 1017 30.03 846 24.98 8.3 47 50 -1.6 29.2 0 0
04:37 1017 30.03 846 24.98 8.3 46.9 50 -1.5 29.4 0 0
04:38 1017 30.03 846 24.98 8.2 46.7 53 -0.9 30.4 0 0
04:39 1017 30.03 846 24.98 7.8 46 53 -1.2 29.9 0 0
04:40 1017 30.03 846 24.98 7.5 45.6 53 -1.5 29.3 0 0
04:41 1017 30.03 846 24.98 7.4 45.4 53 -1.5 29.3 0 0
04:42 1017 30.03 846 24.98 7.4 45.3 53 -1.6 29.1 0 0
04:43 1017 30.03 846 24.98 7.4 45.3 52 -1.7 28.9 0 0
04:44 1017 30.03 846 24.98 7.5 45.4 52 -1.7 28.9 0 0
04:45 1017 30.03 846 24.98 7.5 45.6 49 -2.5 27.4 0 0
04:46 1017 30.03 846 24.98 8 46.3 49 -2.2 28 0 0
04:47 1017 30.03 846 24.98 8 46.4 50 -1.7 28.9 0 0
04:48 1017 30.03 846 24.98 7.8 46 51 -1.8 28.7 0 0
04:49 1017 30.03 846 24.98 7.6 45.7 51 -1.8 28.8 0 0
04:50 1017 30.03 846 24.98 7.5 45.4 53 -1.5 29.3 0 0
04:51 1017 30.03 846 24.98 7.2 45 54 -1.6 29.1 0 0
04:52 1017 30.03 846 24.98 7 44.7 55 -1.5 29.4 0 0
04:53 1017 30.03 846 24.98 6.9 44.4 55 -1.4 29.4 0 0
04:54 1017 30.03 846 24.98 6.7 44.1 56 -1.4 29.5 0 0
04:55 1017 30.03 846 24.98 6.5 43.8 57 -1.5 29.4 0 0
04:56 1017 30.03 846 24.98 6.4 43.5 57 -1.5 29.4 0 0
04:57 1017 30.03 846 24.98 6.3 43.4 57 -1.5 29.4 0 0
04:58 1017 30.03 846 24.98 6.2 43.2 58 -1.5 29.3 0 0
04:59 1017 30.03 846 24.98 6.1 43 58 -1.5 29.4 0 0
05:00 1017 30.03 846 24.98 6.1 43 57 -1.7 28.9 0 0
05:01 1017 30.03 846 24.98 6.3 43.3 57 -1.6 29.1 0 0
05:02 1017 30.03 846 24.98 6.3 43.4 57 -1.5 29.3 0 0
05:03 1017 30.03 846 24.98 6.2 43.2 58 -1.5 29.4 0 0
05:04 1017 30.03 846 24.98 6.1 43 59 -1.4 29.4 0 0
05:05 1017 30.03 846 24.98 6 42.7 59 -1.3 29.6 0 0
05:06 1017 30.03 846 24.98 5.8 42.4 60 -1.3 29.7 0 0
05:07 1017 30.03 846 24.98 5.6 42 61 -1.4 29.5 0 0
05:08 1017 30.03 846 24.98 5.4 41.8 61 -1.4 29.4 0 0
05:09 1017 30.03 846 24.98 5.4 41.7 61 -1.6 29.2 0 0
05:10 1017 30.03 846 24.98 5.4 41.7 61 -1.4 29.4 0 0
05:11 1017 30.03 846 24.98 5.3 41.6 61 -1.5 29.2 0 0
05:12 1017 30.03 846 24.98 5.4 41.8 61 -1.4 29.5 0 0
05:13 1017 30.03 846 24.98 5.4 41.7 61 -1.5 29.3 0 0
05:14 1017 30.03 846 24.98 5.3 41.6 62 -1.4 29.4 0 0
05:15 1017 30.03 846 24.98 5.3 41.5 61 -1.5 29.2 0 0
05:16 1017 30.03 846 24.98 5.3 41.5 62 -1.4 29.5 0 0
05:17 1017 30.03 846 24.98 5.2 41.4 62 -1.5 29.4 0 0
05:18 1017 30.03 846 24.98 5.3 41.6 61 -1.6 29.1 0 0
05:19 1017 30.03 846 24.98 5.6 42.1 59 -1.7 28.9 0 0
05:20 1017 30.03 846 24.98 5.9 42.6 58 -1.7 29 0 0
05:21 1017 30.03 846 24.98 6.1 42.9 58 -1.5 29.3 0 0
05:22 1017 30.03 846 24.98 6.1 43.1 58 -1.5 29.3 0 0
05:23 1017 30.03 846 24.98 6.2 43.2 58 -1.5 29.3 0 0
05:24 1017 30.03 846 24.98 6.1 43 58 -1.5 29.4 0 0
05:25 1017 30.03 846 24.98 6 42.8 59 -1.3 29.6 0 0
05:26 1017 30.03 846 24.98 5.9 42.7 59 -1.3 29.6 0 0
05:27 1017 30.03 846 24.98 5.8 42.4 59 -1.5 29.3 0 0
05:28 1017 30.03 846 24.98 5.8 42.5 59 -1.6 29.1 0 0
05:29 1017 30.03 846 24.98 6 42.7 57 -1.9 28.6 0 0
05:30 1017 30.03 846 24.98 6.2 43.2 56 -1.8 28.8 0 0
05:31 1017 30.03 846 24.98 6.5 43.7 53 -2.3 27.8 0 0
05:32 1017 30.03 846 24.98 7.1 44.7 52 -2 28.4 0 0
05:33 1017 30.03 846 24.98 7.3 45.1 53 -1.7 29 0 0
05:34 1017 30.03 846 24.98 7.3 45.1 53 -1.7 28.9 0 0
05:35 1017 30.03 846 24.98 7.4 45.3 52 -1.7 29 0 0
05:36 1017 30.03 846 24.98 7.4 45.4 52 -1.8 28.8 0 0
05:37 1017 30.03 846 24.98 7.4 45.2 54 -1.4 29.4 0 0
05:38 1017 30.03 846 24.98 7.1 44.8 55 -1.2 29.8 0 0
05:39 1017 30.03 846 24.98 6.7 44 57 -1.2 29.9 0 0
05:40 1017 30.03 846 24.98 6.3 43.4 58 -1.3 29.7 0 0
05:41 1017 30.03 846 24.98 6.1 43 59 -1.4 29.5 0 0
05:42 1017 30.03 846 24.98 6 42.7 59 -1.4 29.5 0 0
05:43 1017 30.03 846 24.98 5.8 42.4 60 -1.5 29.4 0 0
05:44 1017 30.03 846 24.98 5.7 42.3 60 -1.4 29.5 0 0
05:45 1017 30.03 846 24.98 5.6 42.1 60 -1.5 29.4 0 0
05:46 1017 30.03 846 24.98 5.5 42 61 -1.3 29.7 0 0
05:47 1017 30.03 846 24.98 5.3 41.6 62 -1.3 29.7 0 0
05:48 1017 30.03 846 24.98 5.2 41.4 62 -1.4 29.5 0 0
05:49 1017 30.03 846 24.98 5.3 41.5 62 -1.3 29.6 0 0
05:50 1017 30.03 846 24.98 5.3 41.6 62 -1.4 29.5 0 0
05:51 1017 30.03 846 24.98 5.4 41.6 62 -1.4 29.5 0 0
05:52 1017 30.03 846 24.98 5.4 41.7 61 -1.5 29.4 0 0
05:53 1017 30.03 846 24.98 5.5 41.9 61 -1.5 29.4 0 0
05:54 1017 30.03 846 24.98 5.5 42 60 -1.5 29.3 0 0
05:55 1017 30.03 846 24.98 5.6 42 60 -1.6 29.1 0 0
05:56 1017 30.03 846 24.98 5.7 42.2 60 -1.5 29.2 0 0
05:57 1017 30.03 846 24.98 5.7 42.2 59 -1.7 28.9 0 0
05:58 1017 30.03 846 24.98 5.8 42.4 60 -1.4 29.4 0 0
05:59 1017 30.03 846 24.98 5.9 42.6 57 -2 28.5 0 0
06:00 1017 30.03 846 24.98 6.3 43.3 56 -1.9 28.6 0 0
06:01 1017 30.03 846 24.98 6.5 43.6 56 -1.7 29 0 0
06:02 1017 30.03 846 24.98 6.6 43.8 56 -1.6 29.2 0 0
06:03 1017 30.03 846 24.98 6.5 43.7 57 -1.4 29.5 0 0
06:04 1017 30.03 846 24.98 6.4 43.6 57 -1.5 29.4 0 0
06:05 1017 30.03 846 24.98 6.4 43.5 57 -1.5 29.4 0 0
06:06 1017 30.03 846 24.98 6.3 43.3 58 -1.5 29.4 0 0
06:07 1017 30.03 846 24.98 6.1 43 59 -1.3 29.6 0 0
06:08 1017 30.03 846 24.98 5.9 42.7 59 -1.3 29.6 0 0
06:09 1017 30.03 846 24.98 5.7 42.3 59 -1.6 29.1 0 0
06:10 1017 30.03 846 24.98 5.8 42.5 59 -1.6 29.1 0 0
06:11 1017 30.03 846 24.98 5.8 42.5 59 -1.5 29.3 0 0
06:12 1017 30.03 846 24.98 5.7 42.3 60 -1.5 29.4 0 0
06:13 1017 30.03 846 24.98 5.6 42.1 61 -1.3 29.6 0 0
06:14 1017 30.03 846 24.98 5.4 41.7 62 -1.2 29.8 0 0
06:15 1017 30.03 846 24.98 5 41.1 64 -1.2 29.8 0 0
06:16 1017 30.03 846 24.98 4.8 40.7 63 -1.6 29.2 0 0
06:17 1017 30.03 846 24.98 4.9 40.8 64 -1.4 29.5 0 0
06:18 1017 30.03 846 24.98 4.7 40.5 65 -1.4 29.5 0 0
06:19 1017 30.03 846 24.98 4.5 40.1 65 -1.5 29.2 0 0
06:20 1017 30.03 846 24.98 4.5 40.1 64 -1.7 29 0 0
06:21 1017 30.03 846 24.98 4.4 40 64 -1.7 28.9 0 0
06:22 1017 30.03 846 24.98 4.4 39.9 65 -1.7 29 0 0
06:23 1017 30.03 846 24.98 4.4 39.9 64 -1.8 28.8 0 0
06:24 1017 30.03 846 24.98 4.6 40.3 63 -1.7 28.9 0 0
06:25 1017 30.03 846 24.98 4.7 40.4 64 -1.6 29.1 0 0
06:26 1017 30.03 846 24.98 4.7 40.5 63 -1.8 28.8 0 0
06:27 1017 30.03 846 24.98 4.9 40.8 63 -1.6 29 0 0
06:28 1017 30.03 846 24.98 4.8 40.7 63 -1.7 29 0 0
06:29 1017 30.03 846 24.98 4.8 40.7 63 -1.6 29.1 0 0
06:30 1017 30.03 846 24.98 4.8 40.7 63 -1.6 29.2 0 0
06:31 1017 30.03 846 24.98 4.8 40.6 64 -1.5 29.4 0 0
06:32 1017 30.03 846 24.98 4.8 40.6 64 -1.5 29.2 0 0
06:33 1017 30.03 846 24.98 4.9 40.7 64 -1.4 29.5 0 0
06:34 1017 30.03 846 24.98 4.9 40.8 64 -1.3 29.6 0 0
06:35 1017 30.03 846 24.98 4.9 40.9 63 -1.5 29.3 0 0
06:36 1017 30.03 846 24.98 5.1 41.1 63 -1.4 29.6 0 0
06:37 1017 30.03 846 24.98 5.1 41.2 63 -1.3 29.7 0 0
06:38 1017 30.03 846 24.98 5.1 41.2 63 -1.4 29.5 0 0
06:39 1017 30.03 846 24.98 5.2 41.4 62 -1.4 29.5 0 0
06:40 1017 30.03 846 24.98 5.2 41.4 62 -1.4 29.5 0 0
06:41 1017 30.03 846 24.98 5.3 41.5 62 -1.3 29.6 0 0
06:42 1017 30.03 846 24.98 5.3 41.6 62 -1.3 29.7 0 0
06:43 1017 30.03 846 24.98 5.3 41.6 63 -1.1 29.9 0 0
06:44 1017 30.03 846 24.98 5.3 41.6 63 -1.2 29.8 0 0
06:45 1017 30.03 846 24.98 5.3 41.5 63 -1.2 29.9 0 0
06:46 1017 30.03 846 24.98 5.3 41.5 63 -1.2 29.9 0 0
06:47 1017 30.03 846 24.98 5.3 41.5 64 -1.1 30.1 0 0
06:48 1017 30.03 846 24.98 5.2 41.4 64 -1 30.1 0 0
06:49 1017 30.03 846 24.98 5.1 41.2 65 -1 30.3 0 0
06:50 1017 30.03 846 24.98 5 41.1 65 -0.9 30.3 0 0
06:51 1017 30.03 846 24.98 5 40.9 66 -0.9 30.3 0 0
06:52 1017 30.03 846 24.98 4.8 40.7 66 -1 30.2 0 0
06:53 1017 30.03 846 24.98 4.7 40.5 66 -1 30.2 0 0
06:54 1017 30.03 846 24.98 4.7 40.5 66 -1.1 30 0 0
06:55 1017 30.03 846 24.98 4.7 40.5 66 -1.1 30.1 0 0
06:56 1017 30.03 846 24.98 4.8 40.6 66 -1 30.2 0 0
06:57 1017 30.03 846 24.98 4.8 40.6 66 -1 30.2 0 0
06:58 1017 30.03 846 24.98 4.8 40.6 66 -1 30.1 0 0
06:59 1017 30.03 846 24.98 4.8 40.7 65 -1.2 29.8 0 0
07:00 1017 30.03 846 24.98 4.9 40.9 65 -1 30.1 0 0
07:01 1017 30.03 846 24.98 4.9 40.8 65 -1.1 30.1 0 0
07:02 1017 30.03 846 24.98 4.9 40.9 65 -1.1 30.1 0 0
07:03 1017 30.03 846 24.98 5.1 41.1 63 -1.3 29.6 0 0
07:04 1017 30.03 846 24.98 5.3 41.6 62 -1.3 29.7 0 0
07:05 1017 30.03 846 24.98 5.5 41.9 62 -1.2 29.8 0 0
07:06 1017 30.03 846 24.98 5.6 42 60 -1.6 29.1 0 0
07:07 1017 30.03 846 24.98 5.8 42.4 60 -1.3 29.6 0 0
07:08 1017 30.03 846 24.98 5.7 42.3 58 -2 28.4 0 0
07:09 1017 30.03 846 24.98 6.1 42.9 53 -2.7 27.2 0 0
07:10 1017 30.03 846 24.98 6.5 43.7 50 -3.3 26.1 0 0
07:11 1017 30.03 846 24.98 7.3 45.1 50 -2.3 27.8 0 0
07:12 1017 30.03 846 24.98 7.5 45.6 53 -1.5 29.4 0 0
07:13 1017 30.03 846 24.98 7.2 44.9 57 -0.8 30.6 0 0
07:14 1017 30.03 846 24.98 6.8 44.2 56 -1.3 29.6 0 0
07:15 1017 30.03 846 24.98 6.8 44.3 56 -1.2 29.8 0 0
07:16 1017 30.03 846 24.98 6.8 44.2 58 -0.8 30.6 0 0
07:17 1017 30.03 846 24.98 6.5 43.7 60 -0.7 30.7 0 0
07:18 1017 30.03 846 24.98 6.3 43.3 60 -0.9 30.3 0 0
07:19 1017 30.03 846 24.98 6.3 43.3 58 -1.3 29.6 0 0
07:20 1017 30.03 846 24.98 6.5 43.6 60 -0.8 30.6 0 0
07:21 1017 30.03 846 24.98 6.5 43.6 62 -0.3 31.4 0 0
07:22 1017 30.03 846 24.98 6.5 43.7 61 -0.5 31 0 0
07:23 1017 30.03 846 24.98 6.7 44.1 58 -0.8 30.5 0 0
07:24 1017 30.03 846 24.98 7.1 44.7 57 -0.9 30.5 0 0
07:25 1017 30.03 846 24.98 7.4 45.3 57 -0.6 30.9 0 0
07:26 1017 30.03 846 24.98 7.7 45.9 57 -0.2 31.6 0 0
07:27 1017 30.03 846 24.98 8 46.3 53 -1 30.1 0 0
07:28 1017 30.03 846 24.98 8.2 46.8 54 -0.4 31.3 0 0
07:29 1017 30.03 846 24.98 8.5 47.2 53 -0.7 30.8 0 0
07:30 1017 30.03 846 24.98 8.7 47.6 53 -0.5 31.1 0 0
07:31 1017 30.03 846 24.98 8.8 47.9 53 -0.1 31.9 0 0
07:32 1017 30.03 846 24.98 8.9 48 52 -0.5 31.2 0 0
07:33 1017 30.03 846 24.98 9 48.1 55 0.3 32.6 0 0
07:34 1017 30.03 846 24.98 8.9 48.1 58 1.2 34.2 0 0
07:35 1017 30.03 846 24.98 8.8 47.9 58 1.1 34 0 0
07:36 1017 30.03 846 24.98 8.8 47.8 57 0.6 33.2 0 0
07:37 1017 30.03 846 24.98 8.7 47.6 59 1.2 34.2 0 0
07:38 1017 30.03 846 24.98 8.6 47.5 59 1 33.9 0 0
07:39 1017 30.03 846 24.98 8.6 47.4 59 1.1 33.9 0 0
07:40 1017 30.03 846 24.98 8.6 47.4 60 1.3 34.4 0 0
07:41 1017 30.03 846 24.98 8.6 47.5 60 1.3 34.4 0 0
07:42 1017 30.03 846 24.98 8.6 47.5 62 1.7 35 0 0
07:43 1017 30.03 846 24.98 8.7 47.7 60 1.3 34.4 0 0
07:44 1017 30.03 846 24.98 8.7 47.7 60 1.4 34.4 0 0
07:45 1017 30.03 846 24.98 8.8 47.9 62 2 35.7 0 0
07:46 1017 30.03 846 24.98 8.8 47.9 61 1.8 35.3 0 0
07:47 1017 30.03 846 24.98 8.9 47.9 59 1.3 34.4 0 0
07:48 1017 30.03 846 24.98 9 48.2 59 1.4 34.4 0 0
07:49 1017 30.03 846 24.98 9.1 48.4 58 1.4 34.5 0 0
07:50 1017 30.03 846 24.98 9.2 48.6 56 1 33.8 0 0
07:51 1017 30.03 846 24.98 9.3 48.8 59 1.7 35 0 0
07:52 1017 30.03 846 24.98 9.5 49 60 2.1 35.7 0 0
07:53 1017 30.03 846 24.98 9.7 49.4 56 1.4 34.6 0 0
07:54 1017 30.03 846 24.98 9.8 49.7 56 1.6 34.9 0 0
07:55 1017 30.03 846 24.98 10 50 56 1.6 34.8 0 0
07:56 1017 30.03 846 24.98 10.2 50.3 56 1.8 35.2 0 0
07:57 1017 30.03 846 24.98 10.3 50.5 58 2.5 36.5 0 0
07:58 1017 30.03 846 24.98 10.4 50.7 60 2.9 37.2 0 0
07:59 1017 30.03 846 24.98 10.4 50.7 55 1.8 35.2 0 0
08:00 1017 30.03 846 24.98 10.3 50.6 57 2.2 36 0 0
08:01 1017 30.03 846 24.98 10.3 50.5 55 1.7 35 0 0
08:02 1017 30.03 846 24.98 10.3 50.6 55 1.8 35.3 0 0
08:03 1017 30.03 846 24.98 10.3 50.6 58 2.4 36.3 0 0
08:04 1017 30.03 846 24.98 10.3 50.6 57 2.2 36 0 0
08:05 1017 30.03 846 24.98 10.4 50.7 56 2.1 35.8 0 0
08:06 1017 30.03 846 24.98 10.4 50.8 54 1.6 34.9 0 0
08:07 1017 30.03 846 24.98 10.5 50.9 54 1.7 35.1 0 0
08:08 1017 30.03 846 24.98 10.6 51.1 53 1.6 34.8 0 0
08:09 1017 30.03 846 24.98 10.7 51.2 53 1.5 34.6 0 0
08:10 1017 30.03 846 24.98 10.7 51.2 53 1.4 34.5 0 0
08:11 1017 30.03 846 24.98 10.7 51.3 53 1.6 34.9 0 0
08:12 1017 30.03 846 24.98 10.7 51.3 54 1.7 35.1 0 0
08:13 1017 30.03 846 24.98 10.8 51.4 54 2 35.6 0 0
08:14 1017 30.03 846 24.98 10.8 51.5 54 2 35.6 0 0
08:15 1017 30.03 846 24.98 10.9 51.5 56 2.4 36.3 0 0
08:16 1017 30.03 846 24.98 10.9 51.6 55 2.2 36 0 0
08:17 1017 30.03 846 24.98 10.9 51.5 56 2.4 36.3 0 0
08:18 1017 30.03 846 24.98 10.9 51.6 56 2.6 36.7 0 0
08:19 1017 30.03 846 24.98 10.9 51.7 55 2.4 36.2 0 0
08:20 1017 30.03 846 24.98 11 51.7 56 2.6 36.7 0 0
08:21 1017 30.03 846 24.98 11.1 51.9 57 2.9 37.2 0 0
08:22 1016 30 846 24.98 11.1 52 55 2.4 36.3 0 0
08:23 1016 30 846 24.98 11.2 52.2 55 2.5 36.5 0 0
08:24 1016 30 846 24.98 11.3 52.3 57 3.1 37.5 0 0
08:25 1016 30 846 24.98 11.4 52.4 57 3.1 37.5 0 0
08:26 1016 30 846 24.98 11.4 52.5 57 3.4 38 0 0
08:27 1016 30 846 24.98 11.4 52.4 58 3.5 38.2 0 0
08:28 1016 30 846 24.98 11.4 52.5 54 2.6 36.6 0 0
08:29 1016 30 846 24.98 11.4 52.6 56 3.1 37.6 0 0
08:30 1016 30 846 24.98 11.5 52.8 55 2.8 37.1 0 0
08:31 1016 30 846 24.98 11.6 52.9 52 2.2 36 0 0
08:32 1016 30 846 24.98 11.7 53.1 52 2.1 35.8 0 0
08:33 1016 30 846 24.98 11.8 53.2 55 3 37.4 0 0
08:34 1016 30 846 24.98 11.9 53.3 53 2.5 36.6 0 0
08:35 1016 30 846 24.98 11.9 53.4 52 2.5 36.5 0 0
08:36 1016 30 846 24.98 12 53.6 51 2.2 36 0 0
08:37 1016 30 845 24.95 12 53.6 53 2.8 37 0 0
08:38 1016 30 845 24.95 12 53.6 53 2.8 37.1 0 0
08:39 1016 30 846 24.98 12.1 53.8 54 3.1 37.5 0 0
08:40 1016 30 846 24.98 12.3 54.1 51 2.6 36.7 0 0
08:41 1016 30 846 24.98 12.5 54.5 51 2.7 36.9 0 0
08:42 1016 30 846 24.98 12.7 54.8 49 2.2 36 0 0
08:43 1016 30 846 24.98 12.9 55.1 53 3.5 38.4 0 0
08:44 1016 30 846 24.98 13.2 55.7 44 1.1 34.1 0 0
08:45 1016 30 846 24.98 13.4 56 41 0.4 32.8 0 0
08:46 1016 30 846 24.98 13.4 56.1 44 1.5 34.7 0 0
08:47 1016 30 846 24.98 13.5 56.3 44 1.7 35 0 0
08:48 1016 30 846 24.98 13.6 56.6 45 2.1 35.7 0 0
08:49 1016 30 846 24.98 13.9 57 41 0.8 33.5 0 0
08:50 1016 30 846 24.98 14.1 57.3 41 1 33.8 0 0
08:51 1016 30 846 24.98 14 57.2 37 -0.2 31.6 0 0
08:52 1016 30 845 24.95 14 57.1 40 0.6 33 0 0
08:53 1016 30 845 24.95 13.9 57 40 0.4 32.8 0 0
08:54 1016 30 845 24.95 13.9 57.1 37 -0.6 30.9 0 0
08:55 1016 30 845 24.95 14.1 57.3 40 0.7 33.2 0 0
08:56 1016 30 845 24.95 14.2 57.5 35 -1.2 29.9 0 0
08:57 1016 30 846 24.98 14.3 57.8 36 -0.5 31.2 0 0
08:58 1016 30 845 24.95 14.5 58.2 35 -0.6 30.9 0 0
08:59 1016 30 845 24.95 14.8 58.6 32 -1.7 28.9 0 0
09:00 1016 30 845 24.95 15 59 30 -2.3 27.8 0 0
09:01 1016 30 845 24.95 15.2 59.3 32 -1.2 29.8 0 0
09:02 1016 30 845 24.95 15.4 59.7 30 -2.1 28.3 0 0
09:03 1016 30 845 24.95 15.5 59.8 31 -1.5 29.2 0 0
09:04 1016 30 845 24.95 15.5 59.9 33 -0.6 30.9 0 0
09:05 1016 30 845 24.95 15.5 60 31 -1.6 29.2 0 0
09:06 1016 30 845 24.95 15.5 59.9 34 -0.2 31.6 0 0
09:07 1016 30 845 24.95 15.5 59.9 31 -1.6 29.1 0 0
09:08 1016 30 845 24.95 15.4 59.8 33 -0.6 30.9 0 0
09:09 1016 30 845 24.95 15.5 59.8 32 -1.2 29.8 0 0
09:10 1016 30 845 24.95 15.4 59.7 31 -1.6 29.1 0 0
09:11 1016 30 845 24.95 15.4 59.6 32 -1 30.1 0 0
09:12 1016 30 845 24.95 15.3 59.5 32 -1.1 30 0 0
09:13 1016 30 845 24.95 15.2 59.4 36 0.4 32.7 0 0
09:14 1016 30 845 24.95 15.2 59.4 34 -0.3 31.4 0 0
09:15 1016 30 845 24.95 15.2 59.3 37 0.7 33.2 0 0
09:16 1016 30 845 24.95 15.3 59.5 34 -0.4 31.2 0 0
09:17 1016 30 845 24.95 15.3 59.6 32 -1.4 29.5 0 0
09:18 1016 30 845 24.95 15.4 59.6 32 -1.3 29.6 0 0
09:19 1016 30 845 24.95 15.4 59.8 33 -0.5 31.1 0 0
09:20 1016 30 845 24.95 15.5 59.9 36 0.7 33.2 0 0
09:21 1016 30 845 24.95 15.6 60 35 0.1 32.2 0 0
09:22 1016 30 845 24.95 15.5 59.9 33 -0.6 31 0 0
09:23 1016 30 845 24.95 15.5 59.9 33 -0.6 30.9 0 0
09:24 1016 30 845 24.95 15.6 60 31 -1.6 29.2 0 0
09:25 1016 30 845 24.95 15.6 60.1 33 -0.4 31.4 0 0
09:26 1016 30 845 24.95 15.7 60.3 30 -1.8 28.7 0 0
09:27 1016 30 845 24.95 15.7 60.3 31 -1.3 29.7 0 0
09:28 1016 30 845 24.95 15.8 60.4 30 -1.6 29.2 0 0
09:29 1016 30 845 24.95 15.8 60.5 31 -1.2 29.9 0 0
09:30 1016 30 845 24.95 15.9 60.6 31 -0.9 30.3 0 0
09:31 1016 30 845 24.95 16 60.7 33 -0.2 31.6 0 0
09:32 1016 30 845 24.95 16.1 60.9 31 -1 30.2 0 0
09:33 1016 30 845 24.95 16.1 61 32 -0.7 30.7 0 0
09:34 1016 30 845 24.95 16 60.7 30 -1.5 29.3 0 0
09:35 1016 30 845 24.95 15.8 60.5 32 -0.6 30.9 0 0
09:36 1016 30 845 24.95 15.9 60.6 37 1.4 34.5 0 0
09:37 1016 30 845 24.95 15.9 60.6 32 -0.6 31 0 0
09:38 1016 30 845 24.95 15.9 60.6 32 -0.7 30.8 0 0
09:39 1016 30 845 24.95 15.9 60.7 32 -0.7 30.7 0 0
09:40 1016 30 845 24.95 16 60.8 31 -1.1 29.9 0 0
09:41 1016 30 845 24.95 16.1 60.9 33 -0.1 31.9 0 0
09:42 1016 30 845 24.95 16.1 61 32 -0.4 31.3 0 0
09:43 1016 30 845 24.95 16.1 61 30 -1.4 29.4 0 0
09:44 1016 30 845 24.95 16.1 60.9 30 -1.3 29.7 0 0
09:45 1016 30 845 24.95 16.1 60.9 31 -1.1 30 0 0
09:46 1016 30 845 24.95 16 60.9 30 -1.4 29.4 0 0
09:47 1016 30 845 24.95 16.1 60.9 30 -1.4 29.5 0 0
09:48 1016 30 845 24.95 16.2 61.2 31 -1 30.2 0 0
09:49 1016 30 845 24.95 16.4 61.5 37 1.8 35.2 0 0
09:50 1016 30 845 24.95 16.5 61.7 31 -0.6 30.9 0 0
09:51 1016 30 845 24.95 16.5 61.6 30 -0.9 30.4 0 0
09:52 1016 30 845 24.95 16.4 61.5 34 0.6 33.1 0 0
09:53 1016 30 845 24.95 16.4 61.5 30 -1.2 29.9 0 0
09:54 1016 30 845 24.95 16.4 61.4 35 1.1 34.1 0 0
09:55 1016 30 845 24.95 16.3 61.3 30 -1 30.1 0 0
09:56 1016 30 845 24.95 16.3 61.4 33 -0.1 31.9 0 0
09:57 1016 30 845 24.95 16.4 61.5 33 0.1 32.1 0 0
09:58 1016 30 845 24.95 16.4 61.6 35 1.1 33.9 0 0
09:59 1016 30 845 24.95 16.5 61.7 31 -0.7 30.7 0 0
10:00 1016 30 845 24.95 16.6 61.8 31 -0.7 30.7 0 0
10:01 1016 30 845 24.95 16.6 61.9 31 -0.7 30.8 0 0
10:02 1016 30 845 24.95 16.6 62 34 0.7 33.3 0 0
10:03 1016 30 845 24.95 16.7 62.1 30 -0.7 30.7 0 0
10:04 1016 30 845 24.95 16.7 62 36 1.5 34.8 0 0
10:05 1016 30 845 24.95 16.7 62.1 34 0.8 33.4 0 0
10:06 1015 29.97 845 24.95 16.8 62.2 32 0.1 32.2 0 0
10:07 1016 30 845 24.95 16.6 61.9 32 -0 32 0 0
10:08 1015 29.97 845 24.95 16.5 61.7 31 -0.4 31.2 0 0
10:09 1015 29.97 845 24.95 16.5 61.7 30 -1 30.1 0 0
10:10 1015 29.97 845 24.95 16.6 61.9 30 -0.7 30.7 0 0
10:11 1016 30 845 24.95 16.7 62.1 32 -0 32 0 0
10:12 1016 30 845 24.95 16.7 62.1 33 0.4 32.6 0 0
10:13 1015 29.97 845 24.95 16.7 62.1 33 0.6 33.1 0 0
10:14 1015 29.97 845 24.95 16.7 62.1 31 -0.2 31.7 0 0
10:15 1015 29.97 845 24.95 16.8 62.2 36 1.7 35.1 0 0
10:16 1015 29.97 845 24.95 16.7 62.1 35 1.2 34.2 0 0
10:17 1015 29.97 845 24.95 16.7 62 34 0.8 33.5 0 0
10:18 1015 29.97 845 24.95 16.7 62.1 31 -0.5 31.1 0 0
10:19 1015 29.97 845 24.95 16.7 62 32 0 32.1 0 0
10:20 1015 29.97 845 24.95 16.7 62 30 -0.7 30.8 0 0
10:21 1015 29.97 845 24.95 16.5 61.7 31 -0.5 31 0 0
10:22 1015 29.97 845 24.95 16.5 61.6 32 -0 32 0 0
10:23 1015 29.97 845 24.95 16.4 61.6 38 2.2 35.9 0 0
10:24 1015 29.97 845 24.95 16.5 61.7 31 -0.4 31.4 0 0
10:25 1015 29.97 845 24.95 16.4 61.6 31 -0.5 31.1 0 0
10:26 1015 29.97 845 24.95 16.4 61.5 35 1 33.8 0 0
10:27 1015 29.97 845 24.95 16.5 61.7 33 0.2 32.3 0 0
10:28 1015 29.97 845 24.95 16.6 61.9 34 0.6 33.1 0 0
10:29 1015 29.97 845 24.95 16.7 62.1 32 -0.1 31.8 0 0
10:30 1015 29.97 845 24.95 16.7 62.1 32 0.1 32.1 0 0
10:31 1015 29.97 845 24.95 16.8 62.3 37 2.2 35.9 0 0
10:32 1015 29.97 845 24.95 17 62.6 30 -0.5 31.1 0 0
10:33 1015 29.97 845 24.95 17 62.6 30 -0.4 31.3 0 0
10:34 1015 29.97 845 24.95 17 62.6 34 1 33.8 0 0
10:35 1015 29.97 845 24.95 17.1 62.8 35 1.5 34.8 0 0
10:36 1015 29.97 844 24.92 17.3 63.2 31 0.2 32.4 0 0
10:37 1015 29.97 844 24.92 17.5 63.6 35 2.1 35.8 0 0
10:38 1015 29.97 844 24.92 17.6 63.7 31 0.4 32.7 0 0
10:39 1015 29.97 844 24.92 17.6 63.6 31 0.4 32.7 0 0
10:40 1015 29.97 844 24.92 17.4 63.2 31 0.2 32.4 0 0
10:41 1015 29.97 844 24.92 17.3 63.1 36 2.1 35.8 0 0
10:42 1015 29.97 844 24.92 17.3 63.1 31 0.2 32.3 0 0
10:43 1015 29.97 844 24.92 17.2 63 31 0.1 32.3 0 0
10:44 1015 29.97 844 24.92 17.2 63 31 0.2 32.4 0 0
10:45 1015 29.97 844 24.92 17.3 63.1 34 1.4 34.5 0 0
10:46 1015 29.97 844 24.92 17.3 63.2 33 1.1 33.9 0 0
10:47 1015 29.97 844 24.92 17.3 63.2 35 1.9 35.3 0 0
10:48 1015 29.97 844 24.92 17.3 63.1 33 0.8 33.4 0 0
10:49 1015 29.97 844 24.92 17.3 63.1 32 0.4 32.8 0 0
10:50 1015 29.97 844 24.92 17.3 63.2 36 2 35.7 0 0
10:51 1015 29.97 844 24.92 17.4 63.3 31 0.3 32.5 0 0
10:52 1015 29.97 844 24.92 17.4 63.3 31 0.1 32.2 0 0
10:53 1015 29.97 844 24.92 17.4 63.3 33 1.2 34.2 0 0
10:54 1015 29.97 844 24.92 17.4 63.3 31 0.2 32.4 0 0
10:55 1015 29.97 844 24.92 17.5 63.4 32 0.7 33.3 0 0
10:56 1015 29.97 844 24.92 17.6 63.7 33 1.3 34.3 0 0
10:57 1015 29.97 844 24.92 17.8 64 33 1.6 34.8 0 0
10:58 1015 29.97 844 24.92 17.9 64.2 32 1.1 34 0 0
10:59 1015 29.97 844 24.92 17.9 64.1 32 1.2 34.2 0 0
11:00 1015 29.97 844 24.92 17.9 64.2 31 0.8 33.4 0 0
11:01 1015 29.97 844 24.92 18 64.4 31 0.7 33.3 0 0
11:02 1015 29.97 844 24.92 18 64.4 32 1.1 34 0 0
11:03 1015 29.97 844 24.92 18 64.4 36 2.9 37.2 0 0
11:04 1015 29.97 844 24.92 18.2 64.7 31 1.1 34 0 0
11:05 1015 29.97 844 24.92 18.2 64.8 31 0.9 33.5 0 0
11:06 1015 29.97 844 24.92 18.2 64.8 33 1.7 35 0 0
11:07 1015 29.97 844 24.92 18.3 64.9 31 0.8 33.5 0 0
11:08 1015 29.97 844 24.92 18.2 64.8 33 1.7 35.1 0 0
11:09 1015 29.97 844 24.92 18.4 65 30 0.5 32.9 0 0
11:10 1015 29.97 844 24.92 18.4 65.2 32 1.7 35 0 0
11:11 1015 29.97 844 24.92 18.6 65.4 36 3.2 37.8 0 0
11:12 1015 29.97 844 24.92 18.7 65.7 28 -0 31.9 0 0
11:13 1015 29.97 844 24.92 18.7 65.7 30 0.9 33.7 0 0
11:14 1015 29.97 844 24.92 18.6 65.5 30 1 33.7 0 0
11:15 1015 29.97 844 24.92 18.6 65.4 30 1 33.7 0 0
11:16 1015 29.97 844 24.92 18.6 65.4 28 -0.4 31.4 0 0
11:17 1015 29.97 844 24.92 18.5 65.3 30 0.6 33.1 0 0
11:18 1015 29.97 844 24.92 18.6 65.5 31 1.2 34.2 0 0
11:19 1015 29.97 844 24.92 18.8 65.8 30 0.9 33.5 0 0
11:20 1015 29.97 844 24.92 19 66.1 32 1.9 35.4 0 0
11:21 1015 29.97 844 24.92 19 66.2 28 0.1 32.2 0 0
11:22 1015 29.97 844 24.92 18.9 66.1 25 -1.1 30 0 0
11:23 1015 29.97 844 24.92 18.9 65.9 27 -0.2 31.6 0 0
11:24 1015 29.97 844 24.92 18.8 65.9 30 0.8 33.5 0 0
11:25 1015 29.97 844 24.92 18.9 66 28 0.2 32.4 0 0
11:26 1015 29.97 844 24.92 18.9 66.1 30 1 33.9 0 0
11:27 1015 29.97 844 24.92 19.1 66.3 28 0.4 32.7 0 0
11:28 1015 29.97 844 24.92 19.2 66.5 27 -0.3 31.5 0 0
11:29 1015 29.97 844 24.92 19.1 66.5 30 1.1 34 0 0
11:30 1015 29.97 844 24.92 19.3 66.7 31 1.7 35 0 0
11:31 1015 29.97 844 24.92 19.6 67.3 32 2.5 36.5 0 0
11:32 1015 29.97 844 24.92 19.8 67.6 28 0.9 33.6 0 0
11:33 1015 29.97 844 24.92 19.8 67.6 26 0 32 0 0
11:34 1015 29.97 844 24.92 19.7 67.4 28 1 33.9 0 0
11:35 1015 29.97 844 24.92 19.8 67.6 26 0.1 32.2 0 0
11:36 1015 29.97 844 24.92 19.8 67.6 27 0.6 33 0 0
11:37 1015 29.97 844 24.92 19.6 67.4 25 -0.7 30.7 0 0
11:38 1015 29.97 844 24.92 19.5 67.2 26 -0.5 31.1 0 0
11:39 1015 29.97 844 24.92 19.5 67.1 27 0 32 0 0
11:40 1015 29.97 844 24.92 19.5 67.1 29 1.1 34 0 0
11:41 1015 29.97 844 24.92 19.6 67.3 29 1.1 33.9 0 0
11:42 1015 29.97 844 24.92 19.8 67.6 28 1 33.9 0 0
11:43 1014 29.94 844 24.92 19.7 67.4 27 0.2 32.4 0 0
11:44 1014 29.94 844 24.92 19.6 67.3 29 1.1 34 0 0
11:45 1015 29.97 844 24.92 19.9 67.7 29 1.5 34.7 0 0
11:46 1015 29.97 844 24.92 20.2 68.3 25 -0.1 31.8 0 0
11:47 1014 29.94 844 24.92 20.1 68.2 27 0.8 33.4 0 0
11:48 1014 29.94 844 24.92 20 68 28 1.1 34 0 0
11:49 1014 29.94 843 24.89 19.8 67.7 27 0.3 32.5 0 0
11:50 1014 29.94 844 24.92 19.8 67.7 28 0.9 33.6 0 0
11:51 1014 29.94 844 24.92 20.1 68.2 29 1.6 34.9 0 0
11:52 1014 29.94 844 24.92 20.2 68.4 26 0.2 32.4 0 0
11:53 1014 29.94 844 24.92 20.2 68.4 27 1 33.9 0 0
11:54 1014 29.94 844 24.92 20.3 68.5 23 -1.2 29.8 0 0
11:55 1014 29.94 844 24.92 20.2 68.4 25 -0 32 0 0
11:56 1014 29.94 843 24.89 20.1 68.1 25 -0.3 31.4 0 0
11:57 1014 29.94 843 24.89 20.1 68.1 27 0.7 33.3 0 0
11:58 1014 29.94 843 24.89 20.2 68.3 25 -0.2 31.6 0 0
11:59 1014 29.94 843 24.89 20.2 68.3 27 0.9 33.6 0 0
12:00 1014 29.94 843 24.89 20.4 68.7 27 0.8 33.5 0 0
12:01 1014 29.94 843 24.89 20.5 69 29 1.9 35.4 0 0
12:02 1014 29.94 843 24.89 20.8 69.4 30 2.8 37.1 0 0
12:03 1014 29.94 843 24.89 20.9 69.6 22 -1.3 29.6 0 0
12:04 1014 29.94 843 24.89 20.7 69.3 21 -2.3 27.9 0 0
12:05 1014 29.94 843 24.89 20.5 68.8 21 -2.4 27.8 0 0
12:06 1014 29.94 843 24.89 20.3 68.6 25 -0.4 31.2 0 0
12:07 1014 29.94 843 24.89 20.2 68.4 24 -1.1 30 0 0
12:08 1014 29.94 843 24.89 20.3 68.5 23 -1.2 29.9 0 0
12:09 1014 29.94 843 24.89 20.4 68.6 20 -3 26.7 0 0
12:10 1014 29.94 843 24.89 20.3 68.5 20 -3.4 25.9 0 0
12:11 1014 29.94 843 24.89 20.3 68.5 22 -2.2 28 0 0
12:12 1014 29.94 843 24.89 20.4 68.8 23 -1.2 29.9 0 0
12:13 1014 29.94 843 24.89 20.5 68.9 21 -2.1 28.2 0 0
12:14 1014 29.94 843 24.89 20.4 68.6 20 -3.4 25.8 0 0
12:15 1014 29.94 843 24.89 20.3 68.5 21 -2.7 27.1 0 0
12:16 1014 29.94 843 24.89 20.3 68.5 23 -1.6 29.1 0 0
12:17 1014 29.94 843 24.89 20.5 68.9 21 -2.6 27.4 0 0
12:18 1014 29.94 843 24.89 20.6 69.2 20 -3 26.6 0 0
12:19 1014 29.94 843 24.89 20.7 69.2 21 -2 28.5 0 0
12:20 1014 29.94 843 24.89 20.7 69.2 21 -2 28.5 0 0
12:21 1014 29.94 843 24.89 20.7 69.2 19 -3.6 25.5 0 0
12:22 1014 29.94 843 24.89 20.5 68.9 19 -3.9 25 0 0
12:23 1014 29.94 843 24.89 20.4 68.8 17 -5.1 22.8 0 0
12:24 1014 29.94 843 24.89 20.4 68.7 21 -2.5 27.5 0 0
12:25 1014 29.94 843 24.89 20.6 69 17 -5.1 22.9 0 0
12:26 1014 29.94 843 24.89 20.5 68.9 21 -2.6 27.2 0 0
12:27 1014 29.94 843 24.89 20.5 68.8 22 -2 28.3 0 0
12:28 1014 29.94 843 24.89 20.4 68.8 21 -2.4 27.7 0 0
12:29 1014 29.94 843 24.89 20.4 68.6 21 -2.5 27.4 0 0
12:30 1014 29.94 843 24.89 20.3 68.5 20 -3.5 25.7 0 0
12:31 1014 29.94 843 24.89 20.4 68.7 22 -1.7 28.9 0 0
12:32 1014 29.94 843 24.89 20.8 69.4 22 -1.4 29.4 0 0
12:33 1014 29.94 843 24.89 20.9 69.6 22 -1.3 29.6 0 0
12:34 1014 29.94 843 24.89 20.8 69.5 17 -4.8 23.3 0 0
12:35 1014 29.94 843 24.89 20.7 69.2 19 -3.4 25.9 0 0
12:36 1014 29.94 843 24.89 20.7 69.2 19 -3.8 25.1 0 0
12:37 1014 29.94 843 24.89 20.5 69 18 -4.4 24.1 0 0
12:38 1014 29.94 843 24.89 20.4 68.8 20 -3 26.6 0 0
12:39 1014 29.94 843 24.89 20.4 68.8 21 -2.5 27.5 0 0
12:40 1014 29.94 843 24.89 20.6 69.2 20 -2.8 27 0 0
12:41 1014 29.94 843 24.89 20.8 69.4 21 -2.4 27.8 0 0
12:42 1014 29.94 843 24.89 20.9 69.6 21 -1.9 28.6 0 0
12:43 1014 29.94 843 24.89 21 69.8 19 -3.5 25.8 0 0
12:44 1014 29.94 843 24.89 21 69.8 16 -5.6 22 0 0
12:45 1014 29.94 843 24.89 20.9 69.7 19 -3.4 25.9 0 0
12:46 1014 29.94 843 24.89 21.1 69.9 19 -3.6 25.6 0 0
12:47 1013 29.91 843 24.89 21 69.7 17 -4.7 23.6 0 0
12:48 1013 29.91 843 24.89 20.9 69.6 17 -4.6 23.7 0 0
12:49 1013 29.91 843 24.89 20.8 69.5 17 -5.2 22.6 0 0
12:50 1013 29.91 843 24.89 20.8 69.4 20 -3 26.6 0 0
12:51 1013 29.91 843 24.89 20.7 69.2 18 -4.3 24.3 0 0
12:52 1013 29.91 843 24.89 20.7 69.2 23 -1.2 29.8 0 0
12:53 1013 29.91 843 24.89 20.8 69.5 19 -3.5 25.7 0 0
12:54 1013 29.91 843 24.89 20.9 69.6 20 -2.9 26.8 0 0
12:55 1013 29.91 843 24.89 21 69.7 17 -4.5 23.9 0 0
12:56 1013 29.91 843 24.89 20.8 69.5 20 -3 26.7 0 0
12:57 1013 29.91 843 24.89 20.8 69.4 20 -2.9 26.9 0 0
12:58 1013 29.91 843 24.89 20.8 69.4 18 -4.6 23.8 0 0
12:59 1013 29.91 842 24.86 20.8 69.4 19 -3.3 26.1 0 0
13:00 1013 29.91 842 24.86 20.8 69.4 20 -2.6 27.3 0 0
13:01 1013 29.91 842 24.86 20.9 69.5 20 -2.6 27.4 0 0
13:02 1013 29.91 842 24.86 20.8 69.4 20 -2.8 27 0 0
13:03 1013 29.91 842 24.86 20.8 69.4 20 -3.1 26.4 0 0
13:04 1013 29.91 842 24.86 20.8 69.4 19 -3.3 26 0 0
13:05 1013 29.91 842 24.86 20.8 69.4 20 -3.1 26.3 0 0
13:06 1013 29.91 842 24.86 20.9 69.5 21 -2.1 28.3 0 0
13:07 1013 29.91 842 24.86 21 69.8 23 -1 30.2 0 0
13:08 1013 29.91 842 24.86 21.1 69.9 19 -3 26.6 0 0
13:09 1013 29.91 842 24.86 20.9 69.7 22 -1.4 29.5 0 0
13:10 1013 29.91 842 24.86 20.9 69.6 21 -1.8 28.8 0 0
13:11 1013 29.91 842 24.86 21 69.8 19 -3.3 26 0 0
13:12 1013 29.91 842 24.86 20.9 69.7 19 -3.7 25.4 0 0
13:13 1013 29.91 842 24.86 20.9 69.5 16 -5.7 21.7 0 0
13:14 1013 29.91 842 24.86 20.8 69.4 18 -4.1 24.7 0 0
13:15 1013 29.91 842 24.86 20.9 69.6 17 -5.2 22.7 0 0
13:16 1013 29.91 842 24.86 20.9 69.6 19 -3.7 25.3 0 0
13:17 1013 29.91 842 24.86 20.8 69.5 21 -2.2 28 0 0
13:18 1013 29.91 842 24.86 20.9 69.6 22 -1.6 29.1 0 0
13:19 1013 29.91 842 24.86 21 69.9 24 -0.3 31.5 0 0
13:20 1013 29.91 842 24.86 21.3 70.3 17 -4.9 23.1 0 0
13:21 1013 29.91 842 24.86 21.1 70.1 18 -3.9 24.9 0 0
13:22 1013 29.91 842 24.86 20.8 69.5 21 -2.4 27.7 0 0
13:23 1013 29.91 842 24.86 20.9 69.5 18 -4 24.8 0 0
13:24 1013 29.91 842 24.86 20.9 69.6 21 -2.4 27.7 0 0
13:25 1013 29.91 842 24.86 21.1 69.9 20 -2.5 27.4 0 0
13:26 1013 29.91 842 24.86 20.9 69.6 16 -5.5 22.1 0 0
13:27 1013 29.91 842 24.86 20.7 69.3 20 -2.9 26.9 0 0
13:28 1013 29.91 842 24.86 20.8 69.4 18 -4.5 24 0 0
13:29 1013 29.91 842 24.86 20.6 69.1 19 -3.4 25.9 0 0
13:30 1013 29.91 842 24.86 20.6 69.2 18 -4.2 24.4 0 0
13:31 1013 29.91 842 24.86 20.5 68.9 20 -2.9 26.8 0 0
13:32 1013 29.91 842 24.86 20.6 69.1 22 -1.9 28.6 0 0
13:33 1013 29.91 842 24.86 20.9 69.6 18 -4.2 24.4 0 0
13:34 1013 29.91 842 24.86 20.9 69.6 20 -2.6 27.3 0 0
13:35 1013 29.91 842 24.86 20.9 69.6 22 -1.5 29.3 0 0
13:36 1013 29.91 842 24.86 21 69.9 20 -2.6 27.3 0 0
13:37 1013 29.91 842 24.86 21.1 70 21 -1.6 29.2 0 0
13:38 1013 29.91 842 24.86 21.1 70 18 -4.1 24.5 0 0
13:39 1013 29.91 842 24.86 21.1 70.1 20 -2.8 26.9 0 0
13:40 1013 29.91 842 24.86 21.1 70 20 -2.4 27.7 0 0
13:41 1013 29.91 842 24.86 21.1 69.9 19 -2.9 26.7 0 0
13:42 1013 29.91 842 24.86 21.2 70.1 21 -2.1 28.2 0 0
13:43 1013 29.91 842 24.86 21.3 70.4 16 -5.4 22.3 0 0
13:44 1013 29.91 842 24.86 21.3 70.3 19 -3.3 26.1 0 0
13:45 1013 29.91 842 24.86 21.4 70.5 16 -5.3 22.4 0 0
13:46 1013 29.91 842 24.86 21.4 70.5 17 -4.3 24.3 0 0
13:47 1013 29.91 842 24.86 21.3 70.3 16 -5.2 22.7 0 0
13:48 1013 29.91 842 24.86 21.3 70.3 17 -4.4 24 0 0
13:49 1012 29.88 842 24.86 21.2 70.1 17 -4.5 23.9 0 0
13:50 1013 29.91 842 24.86 21.1 70 18 -3.6 25.4 0 0
13:51 1013 29.91 842 24.86 21.1 69.9 19 -3.2 26.3 0 0
13:52 1013 29.91 842 24.86 21 69.9 18 -4.1 24.6 0 0
13:53 1013 29.91 842 24.86 21.1 69.9 19 -3.2 26.3 0 0
13:54 1013 29.91 842 24.86 21.1 69.9 20 -2.5 27.4 0 0
13:55 1013 29.91 842 24.86 21.2 70.1 18 -3.6 25.5 0 0
13:56 1013 29.91 842 24.86 21.2 70.2 20 -2.3 27.9 0 0
13:57 1012 29.88 842 24.86 21.2 70.2 19 -2.9 26.8 0 0
13:58 1012 29.88 842 24.86 21.1 70 19 -3.5 25.7 0 0
13:59 1012 29.88 842 24.86 21.2 70.2 22 -1.4 29.5 0 0
14:00 1012 29.88 842 24.86 21.4 70.5 20 -2.5 27.5 0 0
14:01 1012 29.88 842 24.86 21.4 70.4 19 -3.1 26.5 0 0
14:02 1012 29.88 842 24.86 21.3 70.4 18 -4 24.9 0 0
14:03 1012 29.88 842 24.86 21.3 70.3 23 -0.6 30.9 0 0
14:04 1012 29.88 842 24.86 21.4 70.6 20 -2.2 28 0 0
14:05 1012 29.88 842 24.86 21.5 70.7 20 -2.6 27.4 0 0
14:06 1012 29.88 842 24.86 21.6 70.9 21 -1.7 28.9 0 0
14:07 1012 29.88 841 24.83 21.7 71 21 -1.5 29.4 0 0
14:08 1012 29.88 842 24.86 21.7 71.1 18 -3.7 25.4 0 0
14:09 1012 29.88 841 24.83 21.7 71 20 -2.1 28.1 0 0
14:10 1012 29.88 841 24.83 21.4 70.5 19 -3.2 26.3 0 0
14:11 1012 29.88 841 24.83 21.4 70.6 19 -2.9 26.7 0 0
14:12 1012 29.88 841 24.83 21.4 70.5 18 -3.9 25 0 0
14:13 1012 29.88 841 24.83 21.3 70.4 19 -2.9 26.8 0 0
14:14 1012 29.88 841 24.83 21.4 70.5 23 -0.3 31.4 0 0
14:15 1012 29.88 841 24.83 21.7 71.1 20 -2.1 28.2 0 0
14:16 1012 29.88 841 24.83 21.8 71.2 21 -1.3 29.7 0 0
14:17 1012 29.88 841 24.83 21.9 71.4 20 -1.6 29.1 0 0
14:18 1012 29.88 841 24.83 21.9 71.4 17 -4.1 24.6 0 0
14:19 1012 29.88 841 24.83 21.7 71 20 -2.4 27.7 0 0
14:20 1012 29.88 841 24.83 21.6 70.9 18 -3.6 25.5 0 0
14:21 1012 29.88 841 24.83 21.7 71 21 -1.2 29.9 0 0
14:22 1012 29.88 841 24.83 21.9 71.4 19 -2.3 27.9 0 0
14:23 1012 29.88 841 24.83 22.2 71.9 18 -2.9 26.8 0 0
14:24 1012 29.88 841 24.83 22.2 71.9 20 -2 28.4 0 0
14:25 1012 29.88 841 24.83 22.1 71.7 16 -4.9 23.2 0 0
14:26 1012 29.88 841 24.83 21.9 71.5 19 -2.5 27.5 0 0
14:27 1012 29.88 841 24.83 21.9 71.5 21 -1.5 29.4 0 0
14:28 1012 29.88 841 24.83 22 71.6 18 -3.3 26.1 0 0
14:29 1012 29.88 841 24.83 21.9 71.5 16 -4.5 24 0 0
14:30 1012 29.88 841 24.83 21.8 71.3 16 -4.7 23.5 0 0
14:31 1012 29.88 841 24.83 22 71.6 15 -6 21.3 0 0
14:32 1012 29.88 841 24.83 22 71.6 19 -2.4 27.7 0 0
14:33 1012 29.88 841 24.83 22.2 72 17 -4 24.8 0 0
14:34 1012 29.88 841 24.83 22.2 72 20 -1.6 29.2 0 0
14:35 1012 29.88 841 24.83 22.3 72.2 15 -5 22.9 0 0
14:36 1012 29.88 841 24.83 22.1 71.8 18 -3.5 25.7 0 0
14:37 1012 29.88 841 24.83 21.8 71.3 15 -6.2 20.9 0 0
14:38 1012 29.88 841 24.83 21.7 71.1 16 -4.7 23.6 0 0
14:39 1012 29.88 841 24.83 21.5 70.8 17 -4.6 23.8 0 0
14:40 1012 29.88 841 24.83 21.6 70.9 17 -4 24.8 0 0
14:41 1012 29.88 841 24.83 21.9 71.4 14 -6.6 20.1 0 0
14:42 1012 29.88 841 24.83 22 71.5 14 -6.5 20.4 0 0
14:43 1012 29.88 841 24.83 22.1 71.8 16 -4.7 23.5 0 0
14:44 1012 29.88 841 24.83 22.2 72 15 -5.7 21.8 0 0
14:45 1012 29.88 841 24.83 22.3 72.1 18 -3.1 26.5 0 0
14:46 1012 29.88 841 24.83 22.3 72.1 18 -3.1 26.5 0 0
14:47 1012 29.88 841 24.83 22.2 72 17 -3.5 25.8 0 0
14:48 1012 29.88 841 24.83 22.3 72.1 20 -1.7 29 0 0
14:49 1012 29.88 841 24.83 22.5 72.5 15 -5.4 22.4 0 0
14:50 1012 29.88 841 24.83 22.6 72.6 14 -6.1 21 0 0
14:51 1012 29.88 841 24.83 22.4 72.4 17 -3.4 25.8 0 0
14:52 1012 29.88 841 24.83 22.5 72.5 15 -5.6 22 0 0
14:53 1012 29.88 841 24.83 22.4 72.3 13 -6.9 19.6 0 0
14:54 1012 29.88 841 24.83 22.3 72.1 17 -3.5 25.6 0 0
14:55 1012 29.88 841 24.83 22.4 72.3 15 -5.2 22.7 0 0
14:56 1012 29.88 841 24.83 22.5 72.5 15 -5.6 21.9 0 0
14:57 1012 29.88 841 24.83 22.5 72.6 17 -3.8 25.1 0 0
14:58 1012 29.88 841 24.83 22.5 72.5 15 -5.7 21.8 0 0
14:59 1012 29.88 841 24.83 22.5 72.4 14 -6.6 20.2 0 0
15:00 1012 29.88 841 24.83 22.3 72.2 15 -5.6 21.9 0 0
15:01 1012 29.88 841 24.83 22.3 72.2 18 -2.7 27.1 0 0
15:02 1012 29.88 841 24.83 22.5 72.5 14 -5.7 21.8 0 0
15:03 1012 29.88 841 24.83 22.4 72.3 14 -6.3 20.6 0 0
15:04 1012 29.88 841 24.83 22.3 72.1 18 -2.8 26.9 0 0
15:05 1012 29.88 841 24.83 22.3 72.2 14 -6.5 20.4 0 0
15:06 1012 29.88 841 24.83 22.3 72.1 14 -6.4 20.5 0 0
15:07 1012 29.88 841 24.83 22.1 71.7 14 -6.1 20.9 0 0
15:08 1012 29.88 841 24.83 22 71.6 15 -5.4 22.4 0 0
15:09 1012 29.88 841 24.83 22.1 71.7 13 -7.2 19.1 0 0
15:10 1012 29.88 841 24.83 22 71.6 15 -6 21.1 0 0
15:11 1012 29.88 841 24.83 22.1 71.8 16 -5.1 22.9 0 0
15:12 1012 29.88 841 24.83 22.3 72.1 15 -5.8 21.5 0 0
15:13 1012 29.88 841 24.83 22.2 72 16 -4.3 24.3 0 0
15:14 1012 29.88 841 24.83 22.3 72.2 17 -3.7 25.3 0 0
15:15 1012 29.88 841 24.83 22.4 72.3 16 -4.6 23.6 0 0
15:16 1011 29.85 841 24.83 22.3 72.1 15 -5.5 22 0 0
15:17 1011 29.85 841 24.83 22.2 72 15 -5.9 21.4 0 0
15:18 1011 29.85 841 24.83 22.2 72 15 -5.4 22.3 0 0
15:19 1011 29.85 840 24.81 22 71.5 14 -6.2 20.9 0 0
15:20 1011 29.85 841 24.83 21.8 71.2 16 -5.1 22.8 0 0
15:21 1011 29.85 841 24.83 21.8 71.2 15 -5.8 21.5 0 0
15:22 1011 29.85 841 24.83 21.8 71.3 14 -6.9 19.5 0 0
15:23 1011 29.85 840 24.81 21.6 70.9 14 -6.6 20.1 0 0
15:24 1011 29.85 840 24.81 21.3 70.4 14 -6.8 19.7 0 0
15:25 1011 29.85 840 24.81 21.2 70.1 16 -5.5 22.1 0 0
15:26 1011 29.85 841 24.83 21.3 70.4 15 -6.4 20.6 0 0
15:27 1011 29.85 841 24.83 21.7 71 16 -4.8 23.3 0 0
15:28 1011 29.85 841 24.83 22 71.6 17 -3.8 25.1 0 0
15:29 1011 29.85 841 24.83 22.1 71.8 16 -4.6 23.7 0 0
15:30 1011 29.85 841 24.83 22.1 71.8 18 -3.1 26.4 0 0
15:31 1011 29.85 841 24.83 22.2 72 16 -5 23.1 0 0
15:32 1011 29.85 840 24.81 22.2 71.9 15 -5.8 21.6 0 0
15:33 1011 29.85 841 24.83 22.3 72.2 16 -4.9 23.3 0 0
15:34 1011 29.85 840 24.81 22.2 72 15 -5.8 21.5 0 0
15:35 1011 29.85 840 24.81 21.8 71.2 15 -5.4 22.2 0 0
15:36 1011 29.85 840 24.81 21.2 70.1 16 -5.6 22 0 0
15:37 1011 29.85 840 24.81 20.7 69.3 18 -4 24.8 0 0
15:38 1011 29.85 840 24.81 20.6 69 17 -5.5 22.1 0 0
15:39 1011 29.85 840 24.81 20.9 69.6 17 -5 23 0 0
15:40 1011 29.85 840 24.81 21.3 70.3 19 -3.3 26 0 0
15:41 1011 29.85 840 24.81 21.6 70.9 16 -5.1 22.9 0 0
15:42 1011 29.85 840 24.81 21.8 71.2 16 -4.9 23.1 0 0
15:43 1011 29.85 840 24.81 21.8 71.2 15 -5.6 21.9 0 0
15:44 1011 29.85 840 24.81 21.6 71 15 -6.4 20.5 0 0
15:45 1011 29.85 840 24.81 21.2 70.1 18 -3.9 24.9 0 0
15:46 1011 29.85 840 24.81 20.9 69.5 17 -5.1 22.9 0 0
15:47 1011 29.85 840 24.81 21 69.8 17 -4.7 23.5 0 0
15:48 1011 29.85 840 24.81 21.1 70.1 15 -6.7 19.9 0 0
15:49 1011 29.85 840 24.81 20.9 69.7 16 -5.3 22.5 0 0
15:50 1011 29.85 840 24.81 20.9 69.6 16 -5.9 21.4 0 0
15:51 1011 29.85 840 24.81 21 69.8 16 -5.4 22.4 0 0
15:52 1011 29.85 840 24.81 21.1 70 15 -6.5 20.3 0 0
15:53 1011 29.85 840 24.81 21.6 70.8 15 -6.3 20.6 0 0
15:54 1011 29.85 840 24.81 21.7 71 14 -6.4 20.6 0 0
15:55 1011 29.85 840 24.81 21.9 71.5 15 -5.4 22.3 0 0
15:56 1011 29.85 840 24.81 22.2 71.9 16 -4.4 24.1 0 0
15:57 1011 29.85 840 24.81 22 71.7 14 -6.1 21.1 0 0
15:58 1011 29.85 840 24.81 22.1 71.7 19 -2.7 27.1 0 0
15:59 1011 29.85 840 24.81 22.3 72.2 17 -4.1 24.6 0 0
16:00 1011 29.85 840 24.81 22.5 72.4 16 -4.5 23.9 0 0
16:01 1011 29.85 840 24.81 22.5 72.5 15 -5.6 22 0 0
16:02 1011 29.85 840 24.81 22.5 72.4 14 -6.5 20.3 0 0
16:03 1011 29.85 840 24.81 22.4 72.3 14 -6 21.1 0 0
16:04 1011 29.85 840 24.81 22.3 72.2 17 -4 24.8 0 0
16:05 1011 29.85 840 24.81 22.3 72.1 15 -5.7 21.8 0 0
16:06 1011 29.85 840 24.81 22.2 71.9 16 -4.6 23.7 0 0
16:07 1011 29.85 840 24.81 22.2 71.9 14 -6 21.2 0 0
16:08 1011 29.85 840 24.81 22.2 71.9 15 -5.8 21.5 0 0
16:09 1011 29.85 840 24.81 22.1 71.8 16 -4.8 23.4 0 0
16:10 1011 29.85 840 24.81 22.2 71.9 17 -3.6 25.5 0 0
16:11 1011 29.85 840 24.81 22.3 72.1 13 -7 19.5 0 0
16:12 1011 29.85 840 24.81 22.3 72.2 14 -6.4 20.5 0 0
16:13 1011 29.85 840 24.81 22.3 72.1 15 -5.7 21.7 0 0
16:14 1011 29.85 840 24.81 22.3 72.2 14 -5.9 21.3 0 0
16:15 1011 29.85 840 24.81 22.4 72.4 16 -4.6 23.7 0 0
16:16 1011 29.85 840 24.81 22.4 72.3 18 -3.1 26.4 0 0
16:17 1011 29.85 840 24.81 22.4 72.3 16 -4.8 23.4 0 0
16:18 1011 29.85 840 24.81 22.4 72.3 15 -5.2 22.6 0 0
16:19 1011 29.85 840 24.81 22.4 72.3 14 -5.9 21.4 0 0
16:20 1011 29.85 840 24.81 22.3 72.1 17 -3.7 25.3 0 0
16:21 1011 29.85 840 24.81 22.2 72 15 -5.6 21.9 0 0
16:22 1010 29.83 840 24.81 22 71.6 16 -5.1 22.9 0 0
16:23 1010 29.83 840 24.81 21.6 70.9 17 -4.2 24.5 0 0
16:24 1010 29.83 840 24.81 21.3 70.3 18 -3.7 25.4 0 0
16:25 1010 29.83 840 24.81 21.3 70.4 17 -4.3 24.3 0 0
16:26 1010 29.83 840 24.81 21.2 70.2 17 -4.5 23.8 0 0
16:27 1010 29.83 840 24.81 21 69.8 16 -5.4 22.3 0 0
16:28 1010 29.83 840 24.81 20.8 69.4 18 -4.5 23.8 0 0
16:29 1010 29.83 840 24.81 20.7 69.2 18 -4.2 24.5 0 0
16:30 1010 29.83 840 24.81 20.6 69 18 -4.4 24 0 0
16:31 1010 29.83 839 24.78 20.5 69 18 -4.7 23.5 0 0
16:32 1010 29.83 840 24.81 20.5 68.8 17 -5.3 22.4 0 0
16:33 1010 29.83 840 24.81 20.6 69 19 -4 24.8 0 0
16:34 1010 29.83 839 24.78 20.6 69 18 -4.2 24.4 0 0
16:35 1010 29.83 839 24.78 20.6 69 19 -3.5 25.6 0 0
16:36 1010 29.83 839 24.78 20.5 69 18 -4.7 23.5 0 0
16:37 1010 29.83 839 24.78 20.6 69 18 -4.7 23.5 0 0
16:38 1010 29.83 839 24.78 20.7 69.2 17 -5.5 22.2 0 0
16:39 1010 29.83 839 24.78 20.8 69.4 17 -5 22.9 0 0
16:40 1010 29.83 839 24.78 20.7 69.3 17 -5 23 0 0
16:41 1010 29.83 839 24.78 20.7 69.3 18 -4.4 24.1 0 0
16:42 1010 29.83 839 24.78 20.7 69.3 16 -6.3 20.7 0 0
16:43 1010 29.83 839 24.78 20.6 69.1 17 -5.1 22.8 0 0
16:44 1010 29.83 839 24.78 20.5 68.9 19 -3.9 25 0 0
16:45 1010 29.83 839 24.78 20.3 68.6 17 -5.7 21.7 0 0
16:46 1010 29.83 839 24.78 20.3 68.6 17 -5.4 22.2 0 0
16:47 1010 29.83 839 24.78 20.3 68.5 17 -5.4 22.2 0 0
16:48 1010 29.83 839 24.78 20.4 68.6 16 -6.3 20.6 0 0
16:49 1010 29.83 839 24.78 20.4 68.8 16 -5.8 21.5 0 0
16:50 1010 29.83 839 24.78 20.4 68.8 18 -4.6 23.7 0 0
16:51 1010 29.83 839 24.78 20.4 68.8 16 -5.9 21.3 0 0
16:52 1010 29.83 839 24.78 20.5 68.8 18 -4.9 23.2 0 0
16:53 1010 29.83 839 24.78 20.4 68.7 17 -5.5 22.1 0 0
16:54 1010 29.83 839 24.78 20.4 68.6 16 -5.8 21.6 0 0
16:55 1010 29.83 839 24.78 20.4 68.7 19 -3.9 25 0 0
16:56 1010 29.83 839 24.78 20.6 69 14 -7.7 18.1 0 0
16:57 1010 29.83 839 24.78 21 69.7 19 -3.4 26 0 0
16:58 1010 29.83 840 24.81 21.4 70.5 17 -4.4 24 0 0
16:59 1010 29.83 840 24.81 21.8 71.2 15 -5.5 22 0 0
17:00 1010 29.83 839 24.78 21.8 71.3 17 -4.2 24.5 0 0
17:01 1010 29.83 839 24.78 22 71.5 16 -4.4 24 0 0
17:02 1010 29.83 839 24.78 22.2 72 16 -4.8 23.3 0 0
17:03 1010 29.83 839 24.78 22.3 72.1 18 -3.2 26.2 0 0
17:04 1010 29.83 839 24.78 22.5 72.4 16 -4.8 23.3 0 0
17:05 1010 29.83 839 24.78 22.4 72.4 16 -4.6 23.6 0 0
17:06 1010 29.83 839 24.78 22.3 72.2 14 -6.1 21 0 0
17:07 1010 29.83 839 24.78 22.1 71.9 15 -5.9 21.4 0 0
17:08 1010 29.83 839 24.78 22.1 71.8 19 -2.6 27.3 0 0
17:09 1010 29.83 839 24.78 22.2 72 14 -6 21.2 0 0
17:10 1010 29.83 839 24.78 22.4 72.2 15 -5.7 21.8 0 0
17:11 1010 29.83 839 24.78 22.5 72.5 14 -5.8 21.5 0 0
17:12 1010 29.83 839 24.78 22.5 72.5 15 -5.5 22.1 0 0
17:13 1010 29.83 839 24.78 22.5 72.5 13 -6.9 19.5 0 0
17:14 1010 29.83 839 24.78 22.5 72.4 14 -6.4 20.5 0 0
17:15 1010 29.83 839 24.78 22.4 72.3 14 -6 21.2 0 0
17:16 1010 29.83 839 24.78 22.4 72.3 14 -5.9 21.4 0 0
17:17 1010 29.83 839 24.78 22.4 72.3 16 -4.7 23.6 0 0
17:18 1010 29.83 839 24.78 22.4 72.4 14 -5.9 21.3 0 0
17:19 1010 29.83 839 24.78 22.3 72.2 15 -5.8 21.6 0 0
17:20 1010 29.83 839 24.78 21.9 71.5 14 -6.7 20 0 0
17:21 1010 29.83 839 24.78 21.5 70.7 15 -6.3 20.7 0 0
17:22 1010 29.83 839 24.78 21.1 69.9 14 -7 19.3 0 0
17:23 1010 29.83 839 24.78 20.9 69.6 16 -6 21.3 0 0
17:24 1010 29.83 839 24.78 20.7 69.3 15 -6.8 19.7 0 0
17:25 1010 29.83 839 24.78 20.6 69.2 18 -4.2 24.4 0 0
17:26 1010 29.83 839 24.78 20.4 68.8 18 -4.7 23.6 0 0
17:27 1010 29.83 839 24.78 20.3 68.5 19 -4 24.8 0 0
17:28 1010 29.83 839 24.78 20.4 68.7 16 -5.9 21.3 0 0
17:29 1010 29.83 839 24.78 20.9 69.6 14 -7.1 19.2 0 0
17:30 1010 29.83 839 24.78 21.3 70.4 16 -5.1 22.7 0 0
17:31 1010 29.83 839 24.78 21.6 70.9 16 -5.5 22.2 0 0
17:32 1010 29.83 839 24.78 21.8 71.3 17 -3.9 25 0 0
17:33 1010 29.83 839 24.78 21.9 71.3 17 -3.9 25 0 0
17:34 1010 29.83 839 24.78 22 71.5 14 -6.7 20 0 0
17:35 1010 29.83 839 24.78 21.9 71.4 14 -6.8 19.7 0 0
17:36 1010 29.83 839 24.78 21.8 71.2 13 -7.3 18.9 0 0
17:37 1010 29.83 839 24.78 21.8 71.2 13 -7.4 18.8 0 0
17:38 1010 29.83 839 24.78 21.8 71.3 15 -6.1 21 0 0
17:39 1010 29.83 839 24.78 21.8 71.3 16 -5 23.1 0 0
17:40 1010 29.83 839 24.78 21.8 71.3 16 -5.3 22.4 0 0
17:41 1010 29.83 839 24.78 21.8 71.3 17 -4.2 24.4 0 0
17:42 1010 29.83 839 24.78 21.8 71.3 18 -3.7 25.4 0 0
17:43 1010 29.83 839 24.78 21.8 71.3 16 -4.6 23.8 0 0
17:44 1010 29.83 839 24.78 21.9 71.3 14 -6.4 20.4 0 0
17:45 1010 29.83 839 24.78 21.9 71.5 14 -6.5 20.3 0 0
17:46 1010 29.83 839 24.78 21.9 71.4 13 -7.2 19.1 0 0
17:47 1010 29.83 839 24.78 21.9 71.3 14 -6.8 19.8 0 0
17:48 1010 29.83 839 24.78 21.8 71.3 14 -6.8 19.7 0 0
17:49 1010 29.83 839 24.78 21.8 71.3 14 -6.5 20.3 0 0
17:50 1010 29.83 839 24.78 21.9 71.4 14 -6.4 20.5 0 0
17:51 1010 29.83 839 24.78 21.8 71.3 13 -7.5 18.4 0 0
17:52 1010 29.83 839 24.78 21.8 71.3 13 -7.7 18.2 0 0
17:53 1010 29.83 839 24.78 21.8 71.3 15 -6.1 21.1 0 0
17:54 1010 29.83 839 24.78 21.8 71.2 14 -6.6 20.2 0 0
17:55 1010 29.83 839 24.78 21.7 71.1 14 -7.1 19.1 0 0
17:56 1010 29.83 839 24.78 21.7 71.1 14 -6.4 20.6 0 0
17:57 1010 29.83 839 24.78 21.7 71.1 14 -6.4 20.5 0 0
17:58 1010 29.83 839 24.78 21.7 71 17 -4.4 24.1 0 0
17:59 1010 29.83 839 24.78 21.7 71 13 -7.4 18.7 0 0
18:00 1010 29.83 839 24.78 21.7 71 15 -6.1 20.9 0 0
18:01 1010 29.83 839 24.78 21.6 70.9 14 -7 19.4 0 0
18:02 1009 29.8 839 24.78 21.5 70.7 16 -5.3 22.4 0 0
18:03 1009 29.8 839 24.78 21.2 70.2 15 -6.5 20.2 0 0
18:04 1009 29.8 839 24.78 21 69.8 14 -7.5 18.5 0 0
18:05 1009 29.8 839 24.78 20.9 69.6 14 -7.1 19.2 0 0
18:06 1009 29.8 839 24.78 20.9 69.7 17 -4.9 23.1 0 0
18:07 1009 29.8 839 24.78 21 69.8 17 -5.1 22.9 0 0
18:08 1010 29.83 839 24.78 21.1 70 17 -4.7 23.5 0 0
18:09 1009 29.8 839 24.78 21.2 70.1 17 -4.7 23.5 0 0
18:10 1009 29.8 839 24.78 21 69.7 15 -6.4 20.5 0 0
18:11 1009 29.8 839 24.78 20.8 69.5 16 -6 21.2 0 0
18:12 1010 29.83 839 24.78 20.9 69.6 17 -5 23 0 0
18:13 1009 29.8 839 24.78 20.9 69.6 16 -5.6 21.9 0 0
18:14 1009 29.8 839 24.78 21 69.9 15 -6.8 19.8 0 0
18:15 1009 29.8 839 24.78 21.1 70 17 -4.9 23.1 0 0
18:16 1009 29.8 839 24.78 21.1 70 17 -4.5 23.9 0 0
18:17 1009 29.8 839 24.78 21.1 70.1 14 -7.7 18.2 0 0
18:18 1009 29.8 839 24.78 21.2 70.1 14 -6.8 19.8 0 0
18:19 1009 29.8 839 24.78 21.2 70.1 15 -6 21.2 0 0
18:20 1009 29.8 838 24.75 21.2 70.1 15 -6 21.2 0 0
18:21 1009 29.8 838 24.75 20.9 69.7 16 -6 21.3 0 0
18:22 1009 29.8 838 24.75 20.5 69 16 -5.8 21.5 0 0
18:23 1009 29.8 838 24.75 20.2 68.3 17 -5.4 22.2 0 0
18:24 1009 29.8 838 24.75 20 68 18 -5.2 22.6 0 0
18:25 1009 29.8 838 24.75 20 68 19 -4.3 24.2 0 0
18:26 1009 29.8 839 24.78 20.2 68.3 16 -6 21.3 0 0
18:27 1009 29.8 839 24.78 20.5 68.8 16 -5.8 21.5 0 0
18:28 1009 29.8 839 24.78 20.6 69.1 16 -5.7 21.7 0 0
18:29 1009 29.8 839 24.78 20.7 69.3 17 -4.7 23.5 0 0
18:30 1009 29.8 839 24.78 20.8 69.4 17 -4.8 23.4 0 0
18:31 1009 29.8 838 24.75 20.8 69.4 15 -6.4 20.5 0 0
18:32 1009 29.8 838 24.75 20.8 69.4 16 -5.5 22.2 0 0
18:33 1009 29.8 838 24.75 20.8 69.4 18 -4.5 23.9 0 0
18:34 1009 29.8 838 24.75 20.6 69.2 15 -7 19.3 0 0
18:35 1009 29.8 839 24.78 20.7 69.2 16 -5.7 21.8 0 0
18:36 1009 29.8 838 24.75 20.7 69.2 17 -5.2 22.7 0 0
18:37 1009 29.8 838 24.75 20.6 69.1 16 -6.1 21 0 0
18:38 1009 29.8 839 24.78 20.7 69.2 14 -7.3 18.9 0 0
18:39 1009 29.8 839 24.78 20.7 69.3 15 -7.1 19.3 0 0
18:40 1009 29.8 839 24.78 20.8 69.4 17 -5.4 22.3 0 0
18:41 1009 29.8 839 24.78 20.7 69.2 19 -3.6 25.5 0 0
18:42 1009 29.8 838 24.75 20.6 69.1 17 -5.4 22.3 0 0
18:43 1009 29.8 838 24.75 20.7 69.2 16 -6 21.2 0 0
18:44 1009 29.8 838 24.75 20.7 69.3 18 -4.6 23.8 0 0
18:45 1009 29.8 838 24.75 20.6 69 19 -3.8 25.2 0 0
18:46 1009 29.8 838 24.75 20.4 68.8 16 -5.9 21.3 0 0
18:47 1009 29.8 838 24.75 20.4 68.6 16 -5.9 21.3 0 0
18:48 1009 29.8 838 24.75 20.2 68.4 17 -5.2 22.6 0 0
18:49 1009 29.8 838 24.75 20.1 68.2 18 -4.7 23.5 0 0
18:50 1009 29.8 838 24.75 20.1 68.2 17 -5.5 22.2 0 0
18:51 1009 29.8 838 24.75 20 68.1 17 -6 21.2 0 0
18:52 1009 29.8 838 24.75 20 68.1 17 -5.5 22 0 0
18:53 1009 29.8 838 24.75 20.1 68.1 20 -3.7 25.3 0 0
18:54 1009 29.8 838 24.75 20.1 68.1 18 -4.8 23.3 0 0
18:55 1009 29.8 838 24.75 20.1 68.2 17 -5.3 22.5 0 0
18:56 1009 29.8 838 24.75 20.2 68.3 18 -5 22.9 0 0
18:57 1009 29.8 838 24.75 20.2 68.4 18 -4.9 23.1 0 0
18:58 1009 29.8 838 24.75 20.2 68.3 19 -3.7 25.3 0 0
18:59 1009 29.8 838 24.75 20.1 68.1 18 -4.9 23.2 0 0
19:00 1009 29.8 838 24.75 20 68 20 -3.5 25.6 0 0
19:01 1009 29.8 838 24.75 19.9 67.9 19 -4.4 24.1 0 0
19:02 1009 29.8 838 24.75 19.9 67.8 19 -4.6 23.7 0 0
19:03 1009 29.8 838 24.75 20 67.9 18 -4.9 23.1 0 0
19:04 1009 29.8 838 24.75 19.9 67.8 18 -4.6 23.7 0 0
19:05 1009 29.8 838 24.75 19.9 67.8 18 -5 23.1 0 0
19:06 1009 29.8 838 24.75 20 67.9 19 -4.6 23.8 0 0
19:07 1009 29.8 838 24.75 20 67.9 20 -3.8 25.2 0 0
19:08 1009 29.8 838 24.75 19.9 67.8 19 -4.2 24.5 0 0
19:09 1009 29.8 838 24.75 19.9 67.7 17 -5.5 22 0 0
19:10 1009 29.8 838 24.75 19.9 67.9 18 -5.3 22.5 0 0
19:11 1009 29.8 838 24.75 19.9 67.9 19 -4.5 23.8 0 0
19:12 1009 29.8 838 24.75 19.9 67.8 17 -5.5 22 0 0
19:13 1009 29.8 838 24.75 19.9 67.8 19 -4.4 24.1 0 0
19:14 1009 29.8 838 24.75 19.8 67.7 20 -3.6 25.5 0 0
19:15 1009 29.8 838 24.75 19.7 67.5 18 -5.4 22.3 0 0
19:16 1009 29.8 838 24.75 19.7 67.5 19 -4.2 24.5 0 0
19:17 1009 29.8 838 24.75 19.6 67.2 19 -4.8 23.3 0 0
19:18 1009 29.8 838 24.75 19.5 67.2 19 -4.7 23.5 0 0
19:19 1009 29.8 838 24.75 19.5 67.1 20 -4 24.7 0 0
19:20 1009 29.8 838 24.75 19.4 66.9 20 -4.3 24.3 0 0
19:21 1009 29.8 838 24.75 19.4 67 19 -4.8 23.4 0 0
19:22 1009 29.8 838 24.75 19.4 66.9 20 -4.1 24.7 0 0
19:23 1009 29.8 838 24.75 19.3 66.7 20 -3.9 24.9 0 0
19:24 1009 29.8 838 24.75 19.2 66.6 21 -3.8 25.2 0 0
19:25 1009 29.8 838 24.75 19.1 66.3 22 -3.1 26.4 0 0
19:26 1009 29.8 838 24.75 18.9 66 21 -3.5 25.7 0 0
19:27 1009 29.8 838 24.75 18.9 66 21 -3.8 25.2 0 0
19:28 1009 29.8 838 24.75 18.9 65.9 21 -3.5 25.7 0 0
19:29 1009 29.8 838 24.75 18.8 65.8 23 -2.7 27.1 0 0
19:30 1009 29.8 838 24.75 18.6 65.4 23 -2.9 26.9 0 0
19:31 1009 29.8 838 24.75 18.5 65.2 22 -3.8 25.2 0 0
19:32 1009 29.8 838 24.75 18.5 65.4 21 -4.2 24.5 0 0
19:33 1009 29.8 838 24.75 18.6 65.4 22 -3.4 25.9 0 0
19:34 1009 29.8 838 24.75 18.5 65.3 23 -3 26.5 0 0
19:35 1009 29.8 838 24.75 18.5 65.4 20 -4.6 23.7 0 0
19:36 1009 29.8 838 24.75 18.7 65.6 21 -4.2 24.4 0 0
19:37 1009 29.8 838 24.75 18.6 65.4 22 -3.2 26.3 0 0
19:38 1009 29.8 838 24.75 18.3 64.9 22 -3.9 24.9 0 0
19:39 1009 29.8 838 24.75 18.2 64.7 22 -3.9 25 0 0
19:40 1009 29.8 838 24.75 18.1 64.5 24 -2.9 26.8 0 0
19:41 1009 29.8 838 24.75 17.9 64.2 22 -4.1 24.5 0 0
19:42 1009 29.8 838 24.75 17.9 64.1 22 -3.9 25 0 0
19:43 1009 29.8 838 24.75 17.8 64.1 23 -3.7 25.3 0 0
19:44 1009 29.8 838 24.75 17.7 63.9 22 -3.9 25 0 0
19:45 1009 29.8 838 24.75 17.6 63.7 22 -4.1 24.6 0 0
19:46 1009 29.8 838 24.75 17.5 63.5 23 -3.6 25.6 0 0
19:47 1009 29.8 838 24.75 17.4 63.3 24 -3.2 26.2 0 0
19:48 1009 29.8 838 24.75 17.2 62.9 24 -3.3 26.1 0 0
19:49 1009 29.8 838 24.75 17.1 62.7 25 -3.3 26.1 0 0
19:50 1009 29.8 838 24.75 17 62.5 24 -3.7 25.3 0 0
19:51 1009 29.8 838 24.75 17 62.6 23 -4.1 24.7 0 0
19:52 1009 29.8 838 24.75 17.1 62.8 24 -3.5 25.8 0 0
19:53 1009 29.8 838 24.75 17.1 62.8 20 -5.8 21.6 0 0
19:54 1009 29.8 838 24.75 17.6 63.6 21 -4.9 23.2 0 0
19:55 1009 29.8 838 24.75 17.6 63.7 21 -5 23 0 0
19:56 1009 29.8 838 24.75 17.5 63.5 22 -4.3 24.3 0 0
19:57 1009 29.8 838 24.75 17.4 63.3 19 -6.1 21 0 0
19:58 1009 29.8 838 24.75 17.5 63.5 21 -5 23.1 0 0
19:59 1009 29.8 838 24.75 17.5 63.5 22 -4.2 24.4 0 0
20:00 1009 29.8 838 24.75 17.3 63.1 21 -4.9 23.3 0 0
20:01 1009 29.8 838 24.75 17.1 62.8 21 -5 23 0 0
20:02 1009 29.8 838 24.75 17 62.5 22 -4.7 23.6 0 0
20:03 1009 29.8 838 24.75 16.8 62.3 22 -4.6 23.7 0 0
20:04 1009 29.8 838 24.75 16.9 62.4 22 -4.8 23.4 0 0
20:05 1009 29.8 838 24.75 16.9 62.3 22 -4.7 23.6 0 0
20:06 1009 29.8 838 24.75 16.7 62.1 22 -5.2 22.7 0 0
20:07 1009 29.8 838 24.75 16.6 61.9 23 -4.8 23.4 0 0
20:08 1009 29.8 838 24.75 16.5 61.7 22 -5.3 22.4 0 0
20:09 1009 29.8 838 24.75 16.5 61.6 22 -5.3 22.4 0 0
20:10 1009 29.8 838 24.75 16.5 61.6 21 -6 21.3 0 0
20:11 1009 29.8 838 24.75 16.5 61.7 22 -5.2 22.6 0 0
20:12 1009 29.8 838 24.75 16.4 61.6 22 -5.5 22.1 0 0
20:13 1009 29.8 838 24.75 16.4 61.5 22 -5.2 22.7 0 0
20:14 1009 29.8 838 24.75 16.4 61.5 22 -5 23 0 0
20:15 1009 29.8 838 24.75 16.2 61.2 23 -5.1 22.8 0 0
20:16 1009 29.8 838 24.75 16.1 61 23 -5 23 0 0
20:17 1009 29.8 838 24.75 16.1 60.9 23 -5 23 0 0
20:18 1009 29.8 838 24.75 16 60.7 23 -5.1 22.8 0 0
20:19 1009 29.8 838 24.75 15.8 60.5 23 -5 23 0 0
20:20 1009 29.8 838 24.75 15.8 60.4 24 -4.6 23.8 0 0
20:21 1009 29.8 838 24.75 15.7 60.2 23 -5.3 22.5 0 0
20:22 1009 29.8 838 24.75 15.7 60.3 24 -4.9 23.2 0 0
20:23 1009 29.8 838 24.75 15.7 60.2 25 -4.5 23.9 0 0
20:24 1009 29.8 838 24.75 15.4 59.8 24 -4.8 23.4 0 0
20:25 1009 29.8 838 24.75 15.4 59.7 24 -4.9 23.2 0 0
20:26 1009 29.8 838 24.75 15.3 59.5 25 -4.5 24 0 0
20:27 1009 29.8 838 24.75 15.1 59.2 26 -4.4 24 0 0
20:28 1009 29.8 838 24.75 14.9 58.9 25 -4.7 23.6 0 0
20:29 1009 29.8 838 24.75 14.8 58.7 26 -4.4 24 0 0
20:30 1009 29.8 838 24.75 14.7 58.5 26 -4.6 23.7 0 0
20:31 1009 29.8 838 24.75 14.6 58.2 26 -4.7 23.5 0 0
20:32 1009 29.8 838 24.75 14.5 58.1 26 -4.8 23.4 0 0
20:33 1009 29.8 838 24.75 14.5 58.2 26 -4.9 23.2 0 0
20:34 1009 29.8 838 24.75 14.5 58.1 26 -4.9 23.2 0 0
20:35 1009 29.8 838 24.75 14.4 58 26 -4.9 23.3 0 0
20:36 1009 29.8 838 24.75 14.4 57.8 27 -4.3 24.3 0 0
20:37 1009 29.8 838 24.75 14.2 57.6 27 -4.6 23.8 0 0
20:38 1009 29.8 838 24.75 14.2 57.6 26 -4.9 23.2 0 0
20:39 1009 29.8 838 24.75 14.3 57.7 26 -4.9 23.1 0 0
20:40 1009 29.8 838 24.75 14.3 57.8 26 -4.9 23.2 0 0
20:41 1009 29.8 838 24.75 14.3 57.8 26 -4.6 23.6 0 0
20:42 1009 29.8 838 24.75 14.2 57.6 27 -4.3 24.3 0 0
20:43 1009 29.8 838 24.75 14 57.3 28 -4 24.7 0 0
20:44 1009 29.8 838 24.75 13.8 56.9 29 -4 24.9 0 0
20:45 1009 29.8 838 24.75 13.7 56.6 30 -3.7 25.4 0 0
20:46 1009 29.8 838 24.75 13.3 56 31 -3.4 25.8 0 0
20:47 1009 29.8 838 24.75 12.9 55.2 32 -3.2 26.2 0 0
20:48 1009 29.8 838 24.75 12.5 54.6 32 -3.6 25.6 0 0
20:49 1009 29.8 838 24.75 12.3 54.2 33 -3.4 25.9 0 0
20:50 1009 29.8 838 24.75 12.1 53.7 34 -3.2 26.3 0 0
20:51 1009 29.8 838 24.75 11.8 53.3 35 -2.9 26.7 0 0
20:52 1009 29.8 838 24.75 11.6 52.9 36 -2.8 27 0 0
20:53 1009 29.8 838 24.75 11.4 52.5 36 -2.9 26.7 0 0
20:54 1009 29.8 838 24.75 11.2 52.2 37 -2.7 27.1 0 0
20:55 1009 29.8 838 24.75 11.1 51.9 38 -2.5 27.4 0 0
20:56 1009 29.8 838 24.75 10.9 51.5 39 -2.6 27.4 0 0
20:57 1009 29.8 838 24.75 10.7 51.3 39 -2.6 27.3 0 0
20:58 1009 29.8 838 24.75 10.6 51.1 39 -2.8 26.9 0 0
20:59 1009 29.8 839 24.78 10.6 51 39 -2.9 26.7 0 0
21:00 1009 29.8 838 24.75 10.7 51.2 38 -3.1 26.4 0 0
21:01 1009 29.8 839 24.78 10.8 51.4 37 -3.1 26.4 0 0
21:02 1009 29.8 839 24.78 10.9 51.6 37 -3 26.5 0 0
21:03 1009 29.8 839 24.78 11 51.7 37 -3.2 26.2 0 0
21:04 1009 29.8 839 24.78 11 51.7 37 -3 26.6 0 0
21:05 1009 29.8 839 24.78 10.9 51.6 38 -3 26.7 0 0
21:06 1009 29.8 839 24.78 10.8 51.5 39 -2.7 27.2 0 0
21:07 1009 29.8 839 24.78 10.7 51.3 40 -2.4 27.7 0 0
21:08 1009 29.8 839 24.78 10.6 51 40 -2.5 27.6 0 0
21:09 1009 29.8 839 24.78 10.4 50.7 40 -2.4 27.6 0 0
21:10 1009 29.8 839 24.78 10.3 50.6 40 -2.5 27.5 0 0
21:11 1009 29.8 839 24.78 10.2 50.4 41 -2.4 27.6 0 0
21:12 1009 29.8 839 24.78 10.2 50.4 41 -2.4 27.7 0 0
21:13 1009 29.8 839 24.78 10.2 50.4 41 -2.6 27.4 0 0
21:14 1009 29.8 839 24.78 10.3 50.5 41 -2.5 27.5 0 0
21:15 1010 29.83 839 24.78 10.3 50.6 41 -2.4 27.6 0 0
21:16 1010 29.83 839 24.78 10.4 50.7 40 -2.5 27.5 0 0
21:17 1010 29.83 839 24.78 10.5 50.8 41 -2.1 28.3 0 0
21:18 1010 29.83 839 24.78 10.4 50.6 40 -2.6 27.4 0 0
21:19 1010 29.83 839 24.78 10.4 50.8 41 -2.4 27.7 0 0
21:20 1010 29.83 839 24.78 10.4 50.7 41 -2.2 28 0 0
21:21 1010 29.83 839 24.78 10.2 50.4 41 -2.5 27.6 0 0
21:22 1010 29.83 839 24.78 10.2 50.4 40 -2.7 27.2 0 0
21:23 1010 29.83 839 24.78 10.2 50.4 40 -2.8 27 0 0
21:24 1010 29.83 839 24.78 10.3 50.5 39 -2.9 26.8 0 0
21:25 1010 29.83 839 24.78 10.3 50.5 39 -2.9 26.8 0 0
21:26 1010 29.83 839 24.78 10.3 50.5 41 -2.4 27.7 0 0
21:27 1010 29.83 839 24.78 10 50.1 41 -2.5 27.5 0 0
21:28 1010 29.83 839 24.78 10 49.9 40 -3 26.7 0 0
21:29 1010 29.83 839 24.78 10.1 50.2 39 -3 26.5 0 0
21:30 1010 29.83 839 24.78 10.3 50.6 39 -2.9 26.7 0 0
21:31 1010 29.83 839 24.78 10.4 50.7 39 -2.8 26.9 0 0
21:32 1010 29.83 839 24.78 10.4 50.8 40 -2.5 27.6 0 0
21:33 1010 29.83 839 24.78 10.4 50.7 40 -2.7 27.1 0 0
21:34 1010 29.83 839 24.78 10.3 50.6 43 -1.8 28.8 0 0
21:35 1010 29.83 839 24.78 10 49.9 43 -1.9 28.6 0 0
21:36 1010 29.83 839 24.78 9.7 49.5 43 -2.1 28.1 0 0
21:37 1010 29.83 839 24.78 9.8 49.6 42 -2.6 27.4 0 0
21:38 1010 29.83 839 24.78 9.9 49.9 41 -2.5 27.5 0 0
21:39 1010 29.83 839 24.78 10.2 50.3 41 -2.3 27.8 0 0
21:40 1010 29.83 839 24.78 10.4 50.6 40 -2.5 27.5 0 0
21:41 1010 29.83 839 24.78 10.5 51 39 -2.8 27 0 0
21:42 1010 29.83 839 24.78 10.8 51.4 38 -2.8 26.9 0 0
21:43 1010 29.83 839 24.78 11 51.7 37 -3 26.5 0 0
21:44 1010 29.83 839 24.78 11.2 52.1 35 -3.7 25.3 0 0
21:45 1010 29.83 839 24.78 11.4 52.5 36 -3 26.7 0 0
21:46 1010 29.83 839 24.78 11.4 52.5 38 -2.5 27.6 0 0
21:47 1010 29.83 839 24.78 11.2 52.2 38 -2.5 27.6 0 0
21:48 1010 29.83 839 24.78 11.1 52 39 -2.4 27.7 0 0
21:49 1010 29.83 839 24.78 10.9 51.7 40 -2.2 28.1 0 0
21:50 1010 29.83 839 24.78 10.8 51.5 40 -2.2 28 0 0
21:51 1010 29.83 839 24.78 10.7 51.3 40 -2.1 28.2 0 0
21:52 1010 29.83 839 24.78 10.7 51.2 40 -2.3 27.9 0 0
21:53 1010 29.83 839 24.78 10.7 51.3 39 -2.6 27.3 0 0
21:54 1010 29.83 839 24.78 10.9 51.6 39 -2.5 27.5 0 0
21:55 1010 29.83 839 24.78 11 51.7 39 -2.5 27.5 0 0
21:56 1010 29.83 839 24.78 11 51.7 39 -2.6 27.3 0 0
21:57 1010 29.83 839 24.78 11 51.9 38 -2.5 27.4 0 0
21:58 1010 29.83 839 24.78 11.1 51.9 38 -2.6 27.3 0 0
21:59 1010 29.83 839 24.78 11.1 52 39 -2.4 27.7 0 0
22:00 1010 29.83 839 24.78 11.1 51.9 38 -2.5 27.4 0 0
22:01 1010 29.83 839 24.78 11.1 51.9 39 -2.3 27.9 0 0
22:02 1010 29.83 839 24.78 11 51.7 40 -2.2 28 0 0
22:03 1010 29.83 839 24.78 10.9 51.5 39 -2.4 27.8 0 0
22:04 1010 29.83 839 24.78 10.9 51.5 39 -2.3 27.8 0 0
22:05 1010 29.83 839 24.78 10.8 51.4 40 -2.4 27.8 0 0
22:06 1010 29.83 839 24.78 10.8 51.4 40 -2.2 28.1 0 0
22:07 1010 29.83 839 24.78 10.7 51.3 40 -2.4 27.7 0 0
22:08 1010 29.83 839 24.78 10.8 51.4 39 -2.6 27.4 0 0
22:09 1010 29.83 839 24.78 10.8 51.4 39 -2.5 27.5 0 0
22:10 1010 29.83 839 24.78 10.7 51.3 39 -2.5 27.5 0 0
22:11 1010 29.83 839 24.78 10.8 51.4 39 -2.5 27.5 0 0
22:12 1010 29.83 839 24.78 10.7 51.3 39 -2.6 27.3 0 0
22:13 1010 29.83 839 24.78 10.8 51.5 39 -2.7 27.2 0 0
22:14 1010 29.83 839 24.78 10.9 51.6 38 -2.8 27 0 0
22:15 1010 29.83 839 24.78 10.9 51.7 38 -2.7 27.1 0 0
22:16 1010 29.83 839 24.78 11 51.7 39 -2.6 27.4 0 0
22:17 1010 29.83 839 24.78 11 51.7 39 -2.5 27.5 0 0
22:18 1010 29.83 839 24.78 11 51.7 38 -2.6 27.3 0 0
22:19 1010 29.83 839 24.78 10.8 51.5 41 -1.8 28.7 0 0
22:20 1010 29.83 839 24.78 10.5 50.9 42 -1.9 28.5 0 0
22:21 1010 29.83 839 24.78 10.2 50.3 43 -1.8 28.7 0 0
22:22 1010 29.83 839 24.78 9.9 49.8 44 -1.8 28.8 0 0
22:23 1010 29.83 839 24.78 9.8 49.6 44 -1.8 28.7 0 0
22:24 1010 29.83 839 24.78 9.7 49.4 44 -1.9 28.6 0 0
22:25 1010 29.83 839 24.78 9.6 49.3 45 -1.6 29.1 0 0
22:26 1010 29.83 839 24.78 9.4 48.9 46 -1.6 29.1 0 0
22:27 1010 29.83 839 24.78 9.3 48.7 46 -1.6 29.2 0 0
22:28 1010 29.83 839 24.78 9.2 48.5 47 -1.5 29.3 0 0
22:29 1010 29.83 839 24.78 9.1 48.3 47 -1.6 29.1 0 0
22:30 1010 29.83 839 24.78 9.1 48.3 47 -1.7 28.9 0 0
22:31 1010 29.83 839 24.78 9.1 48.4 47 -1.5 29.4 0 0
22:32 1010 29.83 839 24.78 9 48.2 47 -1.7 28.9 0 0
22:33 1010 29.83 839 24.78 9 48.3 48 -1.4 29.4 0 0
22:34 1010 29.83 839 24.78 9 48.1 47 -1.6 29.1 0 0
22:35 1010 29.83 839 24.78 9 48.2 46 -2 28.3 0 0
22:36 1010 29.83 839 24.78 9.2 48.6 45 -2.2 28 0 0
22:37 1010 29.83 839 24.78 9.5 49.1 43 -2.4 27.6 0 0
22:38 1010 29.83 839 24.78 9.7 49.5 42 -2.5 27.4 0 0
22:39 1010 29.83 839 24.78 10 50.1 42 -2.3 27.8 0 0
22:40 1010 29.83 839 24.78 10.1 50.1 44 -1.6 29.2 0 0
22:41 1010 29.83 839 24.78 9.9 49.7 44 -1.7 28.9 0 0
22:42 1010 29.83 839 24.78 9.6 49.3 45 -1.6 29.1 0 0
22:43 1010 29.83 839 24.78 9.4 49 45 -1.9 28.6 0 0
22:44 1010 29.83 839 24.78 9.4 48.8 46 -1.6 29.1 0 0
22:45 1010 29.83 839 24.78 9.2 48.5 47 -1.5 29.4 0 0
22:46 1010 29.83 839 24.78 9.1 48.4 46 -1.8 28.8 0 0
22:47 1010 29.83 839 24.78 9.1 48.3 47 -1.7 28.9 0 0
22:48 1010 29.83 839 24.78 9 48.2 47 -1.6 29.1 0 0
22:49 1010 29.83 839 24.78 9 48.1 48 -1.5 29.3 0 0
22:50 1010 29.83 839 24.78 8.9 48 47 -1.8 28.8 0 0
22:51 1010 29.83 839 24.78 9 48.2 46 -2.1 28.3 0 0
22:52 1010 29.83 839 24.78 9.1 48.4 45 -2.3 27.8 0 0
22:53 1010 29.83 839 24.78 9.5 49 41 -3 26.5 0 0
22:54 1010 29.83 839 24.78 10 49.9 40 -2.9 26.9 0 0
22:55 1010 29.83 839 24.78 10.3 50.6 40 -2.8 27 0 0
22:56 1010 29.83 839 24.78 10.6 51 39 -2.9 26.7 0 0
22:57 1010 29.83 839 24.78 10.8 51.4 38 -2.8 27 0 0
22:58 1010 29.83 839 24.78 10.8 51.4 38 -2.9 26.7 0 0
22:59 1010 29.83 839 24.78 10.8 51.5 38 -2.8 27 0 0
23:00 1010 29.83 839 24.78 10.8 51.5 38 -2.9 26.8 0 0
23:01 1010 29.83 839 24.78 10.8 51.4 39 -2.5 27.5 0 0
23:02 1010 29.83 839 24.78 10.7 51.2 39 -2.7 27.2 0 0
23:03 1010 29.83 839 24.78 10.6 51.1 39 -2.7 27.1 0 0
23:04 1009 29.8 839 24.78 10.5 51 39 -2.7 27.2 0 0
23:05 1009 29.8 839 24.78 10.5 50.9 39 -2.7 27.1 0 0
23:06 1009 29.8 839 24.78 10.5 50.9 39 -2.8 26.9 0 0
23:07 1009 29.8 839 24.78 10.5 50.9 39 -2.9 26.8 0 0
23:08 1009 29.8 839 24.78 10.5 50.9 39 -2.8 27 0 0
23:09 1009 29.8 839 24.78 10.4 50.8 39 -2.8 27 0 0
23:10 1009 29.8 839 24.78 10.4 50.8 41 -2.2 28.1 0 0
23:11 1009 29.8 839 24.78 10.1 50.2 43 -1.7 28.9 0 0
23:12 1009 29.8 839 24.78 9.6 49.3 45 -1.8 28.8 0 0
23:13 1009 29.8 839 24.78 9.1 48.5 47 -1.5 29.3 0 0
23:14 1009 29.8 839 24.78 8.7 47.7 48 -1.6 29.2 0 0
23:15 1009 29.8 839 24.78 8.4 47.2 49 -1.5 29.2 0 0
23:16 1009 29.8 838 24.75 8.2 46.8 50 -1.5 29.3 0 0
23:17 1009 29.8 838 24.75 8.1 46.5 51 -1.4 29.5 0 0
23:18 1009 29.8 838 24.75 7.8 46.1 52 -1.5 29.3 0 0
23:19 1009 29.8 838 24.75 7.7 45.9 51 -1.6 29 0 0
23:20 1009 29.8 838 24.75 7.7 45.9 51 -1.7 29 0 0
23:21 1009 29.8 838 24.75 7.7 45.8 53 -1.4 29.5 0 0
23:22 1009 29.8 838 24.75 7.6 45.6 53 -1.5 29.4 0 0
23:23 1009 29.8 838 24.75 7.5 45.5 53 -1.5 29.4 0 0
23:24 1009 29.8 838 24.75 7.5 45.5 52 -1.6 29.1 0 0
23:25 1009 29.8 838 24.75 7.5 45.5 52 -1.6 29.1 0 0
23:26 1009 29.8 838 24.75 7.6 45.6 51 -2 28.4 0 0
23:27 1009 29.8 838 24.75 7.8 46 51 -1.8 28.8 0 0
23:28 1009 29.8 838 24.75 7.8 46.1 51 -1.7 29 0 0
23:29 1009 29.8 838 24.75 7.8 46 51 -1.7 28.9 0 0
23:30 1009 29.8 838 24.75 7.7 45.8 51 -1.8 28.8 0 0
23:31 1009 29.8 838 24.75 7.6 45.7 51 -1.9 28.6 0 0
23:32 1009 29.8 838 24.75 7.6 45.6 52 -1.6 29.1 0 0
23:33 1009 29.8 838 24.75 7.4 45.3 53 -1.5 29.2 0 0
23:34 1009 29.8 838 24.75 7.3 45.1 53 -1.6 29 0 0
23:35 1009 29.8 838 24.75 7.3 45.1 53 -1.8 28.8 0 0
23:36 1009 29.8 838 24.75 7.4 45.2 51 -2.2 28.1 0 0
23:37 1009 29.8 838 24.75 7.7 45.8 48 -2.6 27.3 0 0
23:38 1009 29.8 838 24.75 8.2 46.8 46 -2.7 27.1 0 0
23:39 1009 29.8 838 24.75 8.8 47.9 43 -3 26.6 0 0
23:40 1009 29.8 838 24.75 9.3 48.7 42 -2.8 27 0 0
23:41 1009 29.8 838 24.75 9.7 49.4 42 -2.6 27.3 0 0
23:42 1009 29.8 838 24.75 9.8 49.7 41 -2.7 27.1 0 0
23:43 1009 29.8 838 24.75 10 49.9 41 -2.6 27.3 0 0
23:44 1009 29.8 838 24.75 10 50.1 41 -2.7 27.2 0 0
23:45 1009 29.8 838 24.75 10.1 50.2 40 -2.9 26.8 0 0
23:46 1009 29.8 838 24.75 10.3 50.5 39 -3.1 26.3 0 0
23:47 1009 29.8 838 24.75 10.4 50.7 38 -3.2 26.2 0 0
23:48 1009 29.8 838 24.75 10.5 50.8 39 -3 26.6 0 0
23:49 1009 29.8 838 24.75 10.5 50.9 39 -2.8 27 0 0
23:50 1009 29.8 838 24.75 10.4 50.8 40 -2.7 27.1 0 0
23:51 1009 29.8 838 24.75 10.4 50.8 39 -2.9 26.8 0 0
23:52 1009 29.8 838 24.75 10.4 50.8 39 -2.7 27.1 0 0
23:53 1009 29.8 838 24.75 10.4 50.7 39 -2.9 26.8 0 0
23:54 1009 29.8 838 24.75 10.4 50.7 40 -2.7 27.2 0 0
23:55 1009 29.8 839 24.78 10.3 50.6 45 -1.1 30.1 0 0
23:56 1009 29.8 839 24.78 9.9 49.7 45 -1.4 29.4 0 0
23:57 1009 29.8 838 24.75 9.4 48.9 46 -1.8 28.8 0 0
23:58 1009 29.8 838 24.75 9.3 48.7 42 -2.8 26.9 0 0
23:59 1009 29.8 838 24.75 9.5 49.1 40 -3.5 25.8 0 0
24:00 1009 29.8 839 24.78 9.9 49.8 37 -4.1 24.7 0 0